Time,TemperatureF,DewpointF,PressureIn,WindDirection,WindDirectionDegrees,WindSpeedMPH,WindSpeedGustMPH,Humidity,HourlyPrecipIn,Conditions,Clouds,dailyrainin,SolarRadiationWatts/m^2,SoftwareType,DateUTC
2013-02-22 00:00:00,44.1,19.5,30.36,East,101,0.0,3.0,37,0.00,CLR,OVC,0.00,0.0,WeatherDisplay:10.37,2013-02-22 05:00:00,
2013-02-22 00:01:00,43.9,19.3,30.36,East,101,0.0,0.0,37,0.00,CLR,OVC,0.00,0.0,WeatherDisplay:10.37,2013-02-22 05:01:00,
2013-02-22 00:05:00,43.8,19.8,30.37,East,101,0.0,0.0,38,0.00,CLR,OVC,0.00,0.0,WeatherDisplay:10.37,2013-02-22 05:05:00,
2013-02-22 00:06:00,43.8,19.2,30.37,East,101,0.0,0.0,37,0.00,CLR,OVC,0.00,0.0,WeatherDisplay:10.37,2013-02-22 05:06:00,
2013-02-22 00:09:00,43.8,19.8,30.37,East,101,0.0,0.0,38,0.00,CLR,OVC,0.00,0.0,WeatherDisplay:10.37,2013-02-22 05:09:00,
2013-02-22 00:10:00,43.6,19.0,30.37,East,101,0.0,0.0,37,0.00,CLR,OVC,0.00,0.0,WeatherDisplay:10.37,2013-02-22 05:10:00,
2013-02-22 00:12:00,43.6,19.0,30.37,East,101,0.0,0.0,37,0.00,CLR,OVC,0.00,0.0,WeatherDisplay:10.37,2013-02-22 05:12:00,
2013-02-22 00:15:00,43.6,19.6,30.37,East,101,0.0,0.0,38,0.00,CLR,OVC,0.00,0.0,WeatherDisplay:10.37,2013-02-22 05:15:00,
2013-02-22 00:16:00,43.6,19.6,30.37,East,101,0.0,0.0,38,0.00,CLR,OVC,0.00,0.0,WeatherDisplay:10.37,2013-02-22 05:16:00,
2013-02-22 00:18:00,43.5,19.5,30.40,East,101,0.0,0.0,38,0.00,CLR,OVC,0.00,0.0,WeatherDisplay:10.37,2013-02-22 05:18:00,
2013-02-22 00:20:00,43.5,20.2,30.40,East,101,0.0,0.0,39,0.00,CLR,OVC,0.00,0.0,WeatherDisplay:10.37,2013-02-22 05:20:00,
2013-02-22 00:21:00,43.5,20.2,30.40,East,101,0.0,0.0,39,0.00,CLR,OVC,0.00,0.0,WeatherDisplay:10.37,2013-02-22 05:21:00,
2013-02-22 00:22:00,43.5,20.2,30.40,East,101,0.0,0.0,39,0.00,CLR,OVC,0.00,0.0,WeatherDisplay:10.37,2013-02-22 05:22:00,
2013-02-22 00:23:00,43.3,20.0,30.40,East,101,0.0,0.0,39,0.00,CLR,OVC,0.00,0.0,WeatherDisplay:10.37,2013-02-22 05:23:00,
2013-02-22 00:25:00,43.3,20.0,30.40,East,101,0.0,0.0,39,0.00,CLR,OVC,0.00,0.0,WeatherDisplay:10.37,2013-02-22 05:25:00,
2013-02-22 00:26:00,43.3,20.6,30.40,East,101,0.0,0.0,40,0.00,CLR,OVC,0.00,0.0,WeatherDisplay:10.37,2013-02-22 05:26:00,
2013-02-22 00:28:00,43.2,21.1,30.40,East,101,0.0,0.0,41,0.00,CLR,OVC,0.00,0.0,WeatherDisplay:10.37,2013-02-22 05:28:00,
2013-02-22 00:31:00,42.8,23.9,30.40,East,101,0.0,0.0,47,0.00,CLR,OVC,0.00,0.0,WeatherDisplay:10.37,2013-02-22 05:31:00,
2013-02-22 00:33:00,42.6,23.8,30.40,East,101,0.0,0.0,47,0.00,CLR,OVC,0.00,0.0,WeatherDisplay:10.37,2013-02-22 05:33:00,
2013-02-22 00:34:00,42.5,23.2,30.42,East,101,0.0,0.0,46,0.00,CLR,OVC,0.00,0.0,WeatherDisplay:10.37,2013-02-22 05:34:00,
2013-02-22 00:36:00,42.5,21.5,30.42,East,101,0.0,0.0,43,0.00,CLR,OVC,0.00,0.0,WeatherDisplay:10.37,2013-02-22 05:36:00,
2013-02-22 00:39:00,42.5,25.1,30.42,ESE,121,4.6,5.0,50,0.00,CLR,OVC,0.00,0.0,WeatherDisplay:10.37,2013-02-22 05:39:00,
2013-02-22 00:41:00,42.1,25.7,30.42,SE,128,4.5,5.0,52,0.00,CLR,OVC,0.00,0.0,WeatherDisplay:10.37,2013-02-22 05:41:00,
2013-02-22 00:43:00,41.8,24.0,30.42,SE,138,4.6,5.0,49,0.00,CLR,OVC,0.00,0.0,WeatherDisplay:10.37,2013-02-22 05:43:00,
2013-02-22 00:45:00,41.8,23.0,30.42,SE,132,3.0,5.0,47,0.00,CLR,OVC,0.00,0.0,WeatherDisplay:10.37,2013-02-22 05:45:00,
2013-02-22 00:47:00,41.9,23.1,30.42,SE,138,0.0,0.0,47,0.00,CLR,OVC,0.00,0.0,WeatherDisplay:10.37,2013-02-22 05:47:00,
2013-02-22 00:50:00,41.9,23.6,30.42,SE,138,0.0,0.0,48,0.00,CLR,OVC,0.00,0.0,WeatherDisplay:10.37,2013-02-22 05:50:00,
2013-02-22 00:52:00,41.9,22.6,30.42,SE,138,0.0,0.0,46,0.00,CLR,OVC,0.00,0.0,WeatherDisplay:10.37,2013-02-22 05:52:00,
2013-02-22 00:53:00,41.9,22.6,30.42,SE,138,0.0,0.0,46,0.00,CLR,OVC,0.00,0.0,WeatherDisplay:10.37,2013-02-22 05:53:00,
2013-02-22 00:56:00,42.1,24.3,30.42,SE,138,0.0,0.0,49,0.00,CLR,OVC,0.00,0.0,WeatherDisplay:10.37,2013-02-22 05:56:00,
2013-02-22 00:57:00,42.1,24.3,30.42,SE,138,0.0,0.0,49,0.00,CLR,OVC,0.00,0.0,WeatherDisplay:10.37,2013-02-22 05:57:00,
2013-02-22 00:58:00,41.9,29.8,30.42,SE,138,0.0,0.0,62,0.00,CLR,OVC,0.00,0.0,WeatherDisplay:10.37,2013-02-22 05:58:00,
2013-02-22 01:01:00,40.9,28.5,30.42,SE,138,0.0,0.0,61,0.00,CLR,OVC,0.00,0.0,WeatherDisplay:10.37,2013-02-22 06:01:00,
2013-02-22 01:02:00,40.9,28.5,30.42,SE,138,0.0,0.0,61,0.00,CLR,OVC,0.00,0.0,WeatherDisplay:10.37,2013-02-22 06:02:00,
2013-02-22 01:03:00,40.6,28.6,30.40,SE,138,0.0,0.0,62,0.00,CLR,OVC,0.00,0.0,WeatherDisplay:10.37,2013-02-22 06:03:00,
2013-02-22 01:08:00,40.3,26.7,30.40,SE,138,0.0,0.0,58,0.00,CLR,OVC,0.00,0.0,WeatherDisplay:10.37,2013-02-22 06:08:00,
2013-02-22 01:09:00,40.3,26.7,30.40,SE,138,0.0,0.0,58,0.00,CLR,OVC,0.00,0.0,WeatherDisplay:10.37,2013-02-22 06:09:00,
2013-02-22 01:11:00,40.5,27.7,30.40,SE,138,0.7,3.0,60,0.00,CLR,OVC,0.00,0.0,WeatherDisplay:10.37,2013-02-22 06:11:00,
2013-02-22 01:14:00,40.1,31.1,30.40,SE,138,0.4,1.0,70,0.01,RA,OVC,0.01,0.0,WeatherDisplay:10.37,2013-02-22 06:14:00,
2013-02-22 01:15:00,39.8,31.2,30.40,SE,138,1.4,3.0,71,0.01,RA,OVC,0.01,0.0,WeatherDisplay:10.37,2013-02-22 06:15:00,
2013-02-22 01:18:00,39.1,31.2,30.41,SE,137,2.0,4.0,73,0.01,RA,OVC,0.01,0.0,WeatherDisplay:10.37,2013-02-22 06:18:00,
2013-02-22 01:20:00,38.8,30.9,30.41,SE,134,2.4,4.6,73,0.01,RA,OVC,0.01,0.0,WeatherDisplay:10.37,2013-02-22 06:20:00,
2013-02-22 01:21:00,38.6,31.0,30.41,SE,134,2.7,4.6,74,0.01,RA,OVC,0.01,0.0,WeatherDisplay:10.37,2013-02-22 06:21:00,
2013-02-22 01:22:00,38.3,31.1,30.41,SE,134,2.8,3.5,75,0.01,RA,OVC,0.02,0.0,WeatherDisplay:10.37,2013-02-22 06:22:00,
2013-02-22 01:25:00,38.0,31.1,30.41,SE,134,2.9,4.0,76,0.02,RA,OVC,0.02,0.0,WeatherDisplay:10.37,2013-02-22 06:25:00,
2013-02-22 01:26:00,38.0,31.1,30.41,SE,134,3.1,4.0,76,0.02,RA,OVC,0.02,0.0,WeatherDisplay:10.37,2013-02-22 06:26:00,
2013-02-22 01:28:00,37.9,31.0,30.41,SE,134,3.2,3.5,76,0.02,RA,OVC,0.02,0.0,WeatherDisplay:10.37,2013-02-22 06:28:00,
2013-02-22 01:30:00,37.9,31.0,30.41,SE,134,3.0,5.0,76,0.00,RA,OVC,0.03,0.0,WeatherDisplay:10.37,2013-02-22 06:30:00,
2013-02-22 01:33:00,37.8,31.2,30.41,SE,130,4.1,5.0,77,0.03,RA,OVC,0.03,0.0,WeatherDisplay:10.37,2013-02-22 06:33:00,
2013-02-22 01:36:00,37.6,31.7,30.40,SE,130,2.0,3.5,79,0.04,RA,OVC,0.04,0.0,WeatherDisplay:10.37,2013-02-22 06:36:00,
2013-02-22 01:37:00,37.5,31.6,30.40,SE,130,2.4,3.5,79,0.04,RA,OVC,0.04,0.0,WeatherDisplay:10.37,2013-02-22 06:37:00,
2013-02-22 01:38:00,37.3,31.7,30.40,SE,130,0.1,2.3,80,0.05,RA,OVC,0.05,0.0,WeatherDisplay:10.37,2013-02-22 06:38:00,
2013-02-22 01:39:00,37.2,31.9,30.40,SE,129,0.0,0.0,81,0.05,RA,OVC,0.06,0.0,WeatherDisplay:10.37,2013-02-22 06:39:00,
2013-02-22 01:42:00,37.0,32.3,30.40,SE,129,0.0,0.0,83,0.06,RA,OVC,0.06,0.0,WeatherDisplay:10.37,2013-02-22 06:42:00,
2013-02-22 01:44:00,36.9,32.2,30.40,SE,129,0.0,0.0,83,0.07,RA,OVC,0.07,0.0,WeatherDisplay:10.37,2013-02-22 06:44:00,
2013-02-22 01:45:00,36.9,32.2,30.40,SE,129,0.0,5.0,83,0.00,RA,OVC,0.07,0.0,WeatherDisplay:10.37,2013-02-22 06:45:00,
2013-02-22 01:48:00,36.8,32.4,30.41,SE,129,0.0,0.0,84,0.08,RA,OVC,0.08,0.0,WeatherDisplay:10.37,2013-02-22 06:48:00,
2013-02-22 01:50:00,36.8,32.7,30.41,SE,129,0.0,0.0,85,0.09,RA,OVC,0.09,0.0,WeatherDisplay:10.37,2013-02-22 06:50:00,
2013-02-22 01:51:00,36.8,32.7,30.41,SE,129,0.0,0.0,85,0.09,RA,OVC,0.09,0.0,WeatherDisplay:10.37,2013-02-22 06:51:00,
2013-02-22 01:53:00,36.8,32.7,30.41,SE,129,0.0,0.0,85,0.09,RA,OVC,0.09,0.0,WeatherDisplay:10.37,2013-02-22 06:53:00,
2013-02-22 01:56:00,36.6,32.5,30.41,SE,129,0.0,0.0,85,0.10,RA,OVC,0.10,0.0,WeatherDisplay:10.37,2013-02-22 06:56:00,
2013-02-22 01:57:00,36.6,32.5,30.41,SE,129,0.0,0.0,85,0.10,RA,OVC,0.10,0.0,WeatherDisplay:10.37,2013-02-22 06:57:00,
2013-02-22 02:00:00,36.6,32.8,30.41,SE,129,0.0,0.0,86,0.00,RA,OVC,0.11,0.0,WeatherDisplay:10.37,2013-02-22 07:00:00,
2013-02-22 02:01:00,36.5,32.7,30.41,SE,129,0.0,0.0,86,0.11,RA,OVC,0.11,0.0,WeatherDisplay:10.37,2013-02-22 07:01:00,
2013-02-22 02:04:00,36.3,32.8,30.41,SE,129,2.5,3.5,87,0.11,RA,OVC,0.11,0.0,WeatherDisplay:10.37,2013-02-22 07:04:00,
2013-02-22 02:05:00,36.2,32.7,30.41,SE,129,2.4,3.5,87,0.11,RA,OVC,0.11,0.0,WeatherDisplay:10.37,2013-02-22 07:05:00,
2013-02-22 02:06:00,36.2,33.0,30.41,SE,129,2.8,3.5,88,0.11,RA,OVC,0.12,0.0,WeatherDisplay:10.37,2013-02-22 07:06:00,
2013-02-22 02:08:00,36.0,32.8,30.41,SE,129,2.4,3.5,88,0.12,RA,OVC,0.12,0.0,WeatherDisplay:10.37,2013-02-22 07:08:00,
2013-02-22 02:11:00,35.9,33.0,30.41,SE,129,0.0,0.0,89,0.12,RA,OVC,0.12,0.0,WeatherDisplay:10.37,2013-02-22 07:11:00,
2013-02-22 02:12:00,35.8,32.9,30.41,SE,129,0.8,3.5,89,0.12,RA,OVC,0.12,0.0,WeatherDisplay:10.37,2013-02-22 07:12:00,
2013-02-22 02:13:00,35.8,32.9,30.41,SE,129,2.9,3.5,89,0.11,RA,OVC,0.12,0.0,WeatherDisplay:10.37,2013-02-22 07:13:00,
2013-02-22 02:15:00,35.8,32.9,30.41,SE,129,3.0,4.0,89,0.01,RA,OVC,0.13,0.0,WeatherDisplay:10.37,2013-02-22 07:15:00,
2013-02-22 02:17:00,35.6,33.0,30.41,SE,129,3.1,4.0,90,0.12,RA,OVC,0.13,0.0,WeatherDisplay:10.37,2013-02-22 07:17:00,
2013-02-22 02:18:00,35.6,33.0,30.40,SE,129,3.9,5.0,90,0.12,RA,OVC,0.13,0.0,WeatherDisplay:10.37,2013-02-22 07:18:00,
2013-02-22 02:21:00,35.5,32.9,30.40,NE,42,6.4,6.9,90,0.12,RA,OVC,0.13,0.0,WeatherDisplay:10.37,2013-02-22 07:21:00,
2013-02-22 02:22:00,35.3,32.7,30.40,NE,37,7.6,10.0,90,0.12,RA,OVC,0.13,0.0,WeatherDisplay:10.37,2013-02-22 07:22:00,
2013-02-22 02:24:00,35.2,32.6,30.40,NE,37,9.3,11.5,90,0.11,RA,OVC,0.14,0.0,WeatherDisplay:10.37,2013-02-22 07:24:00,
2013-02-22 02:26:00,35.0,32.6,30.40,NE,36,8.1,11.5,91,0.12,RA,OVC,0.14,0.0,WeatherDisplay:10.37,2013-02-22 07:26:00,
2013-02-22 02:29:00,35.2,32.8,30.40,NNE,27,3.2,10.4,91,0.12,RA,OVC,0.15,0.0,WeatherDisplay:10.37,2013-02-22 07:29:00,
2013-02-22 02:30:00,35.1,32.7,30.40,NE,35,3.0,12.0,91,0.00,RA,OVC,0.15,0.0,WeatherDisplay:10.37,2013-02-22 07:30:00,
2013-02-22 02:32:00,35.2,32.8,30.40,NNE,27,2.7,4.0,91,0.12,RA,OVC,0.15,0.0,WeatherDisplay:10.37,2013-02-22 07:32:00,
2013-02-22 02:35:00,35.2,32.8,30.40,NNE,32,7.8,10.4,91,0.12,RA,OVC,0.16,0.0,WeatherDisplay:10.37,2013-02-22 07:35:00,
2013-02-22 02:36:00,35.2,32.8,30.40,NNE,32,6.2,10.4,91,0.12,RA,OVC,0.16,0.0,WeatherDisplay:10.37,2013-02-22 07:36:00,
2013-02-22 02:38:00,35.3,32.9,30.40,NNE,32,5.3,6.9,91,0.12,RA,OVC,0.16,0.0,WeatherDisplay:10.37,2013-02-22 07:38:00,
2013-02-22 02:41:00,35.3,32.7,30.40,NE,36,6.6,10.0,90,0.10,RA,OVC,0.16,0.0,WeatherDisplay:10.37,2013-02-22 07:41:00,
2013-02-22 02:43:00,35.3,32.7,30.40,NE,36,5.5,6.9,90,0.10,RA,OVC,0.17,0.0,WeatherDisplay:10.37,2013-02-22 07:43:00,
2013-02-22 02:44:00,35.3,32.7,30.40,NE,36,5.5,6.9,90,0.10,RA,OVC,0.17,0.0,WeatherDisplay:10.37,2013-02-22 07:44:00,
2013-02-22 02:47:00,35.3,32.7,30.40,NE,36,6.2,6.2,90,0.10,RA,OVC,0.17,0.0,WeatherDisplay:10.37,2013-02-22 07:47:00,
2013-02-22 02:49:00,35.3,32.7,30.41,NE,36,4.2,5.8,90,0.09,RA,OVC,0.17,0.0,WeatherDisplay:10.37,2013-02-22 07:49:00,
2013-02-22 02:50:00,35.3,32.7,30.41,NE,36,4.4,5.8,90,0.08,RA,OVC,0.18,0.0,WeatherDisplay:10.37,2013-02-22 07:50:00,
2013-02-22 02:51:00,35.3,32.7,30.41,NE,36,4.4,5.8,90,0.08,RA,OVC,0.18,0.0,WeatherDisplay:10.37,2013-02-22 07:51:00,
2013-02-22 02:53:00,35.2,32.6,30.41,NE,34,4.3,9.2,90,0.09,RA,OVC,0.18,0.0,WeatherDisplay:10.37,2013-02-22 07:53:00,
2013-02-22 02:55:00,35.2,32.6,30.41,NE,34,5.0,10.4,90,0.08,RA,OVC,0.18,0.0,WeatherDisplay:10.37,2013-02-22 07:55:00,
2013-02-22 02:56:00,35.2,32.6,30.41,NE,34,4.7,5.8,90,0.08,RA,OVC,0.18,0.0,WeatherDisplay:10.37,2013-02-22 07:56:00,
2013-02-22 02:57:00,35.0,32.4,30.41,NE,34,4.7,6.9,90,0.08,RA,OVC,0.18,0.0,WeatherDisplay:10.37,2013-02-22 07:57:00,
2013-02-22 02:59:00,35.0,32.4,30.41,NE,34,4.9,6.0,90,0.08,RA,OVC,0.19,0.0,WeatherDisplay:10.37,2013-02-22 07:59:00,
2013-02-22 03:00:00,35.0,32.6,30.41,NE,34,5.5,6.9,91,0.08,RA,OVC,0.19,0.0,WeatherDisplay:10.37,2013-02-22 08:00:00,
2013-02-22 03:02:00,34.9,32.5,30.41,NE,40,7.2,9.2,91,0.08,RA,OVC,0.19,0.0,WeatherDisplay:10.37,2013-02-22 08:02:00,
2013-02-22 03:04:00,34.9,32.5,30.38,NE,42,5.8,9.2,91,0.08,RA,OVC,0.19,0.0,WeatherDisplay:10.37,2013-02-22 08:04:00,
2013-02-22 03:05:00,34.9,32.5,30.38,NE,42,5.1,6.9,91,0.08,RA,OVC,0.20,0.0,WeatherDisplay:10.37,2013-02-22 08:05:00,
2013-02-22 03:06:00,34.9,32.5,30.38,NE,46,6.4,9.2,91,0.09,RA,OVC,0.20,0.0,WeatherDisplay:10.37,2013-02-22 08:06:00,
2013-02-22 03:08:00,34.7,32.3,30.38,NE,49,6.9,9.2,91,0.08,RA,OVC,0.20,0.0,WeatherDisplay:10.37,2013-02-22 08:08:00,
2013-02-22 03:10:00,34.7,32.3,30.38,NE,51,6.3,9.2,91,0.08,RA,OVC,0.20,0.0,WeatherDisplay:10.37,2013-02-22 08:10:00,
2013-02-22 03:12:00,34.7,32.3,30.38,ENE,63,7.7,10.4,91,0.08,RA,OVC,0.20,0.0,WeatherDisplay:10.37,2013-02-22 08:12:00,
2013-02-22 03:13:00,34.7,32.3,30.38,ENE,62,5.1,9.2,91,0.08,RA,OVC,0.20,0.0,WeatherDisplay:10.37,2013-02-22 08:13:00,
2013-02-22 03:15:00,34.7,32.3,30.38,ENE,62,4.3,8.1,91,0.08,RA,OVC,0.21,0.0,WeatherDisplay:10.37,2013-02-22 08:15:00,
2013-02-22 03:18:00,34.7,32.3,30.39,ENE,62,4.0,5.8,91,0.08,RA,OVC,0.21,0.0,WeatherDisplay:10.37,2013-02-22 08:18:00,
2013-02-22 03:19:00,34.7,32.3,30.39,ENE,62,3.6,4.6,91,0.08,RA,OVC,0.21,0.0,WeatherDisplay:10.37,2013-02-22 08:19:00,
2013-02-22 03:24:00,34.9,32.8,30.39,ENE,62,0.0,1.2,92,0.08,RA,OVC,0.22,0.0,WeatherDisplay:10.37,2013-02-22 08:24:00,
2013-02-22 03:25:00,34.9,32.5,30.39,ENE,62,0.0,1.2,91,0.08,RA,OVC,0.22,0.0,WeatherDisplay:10.37,2013-02-22 08:25:00,
2013-02-22 03:26:00,34.9,32.5,30.39,ENE,62,0.0,0.0,91,0.08,RA,OVC,0.22,0.0,WeatherDisplay:10.37,2013-02-22 08:26:00,
2013-02-22 03:30:00,34.7,32.3,30.39,ENE,62,4.5,6.0,91,0.08,RA,OVC,0.23,0.0,WeatherDisplay:10.37,2013-02-22 08:30:00,
2013-02-22 03:33:00,34.7,32.3,30.39,East,87,5.2,6.0,91,0.08,RA,OVC,0.23,0.0,WeatherDisplay:10.37,2013-02-22 08:33:00,
2013-02-22 03:34:00,34.7,32.3,30.39,East,87,5.5,6.9,91,0.08,RA,OVC,0.23,0.0,WeatherDisplay:10.37,2013-02-22 08:34:00,
2013-02-22 03:36:00,34.7,32.3,30.39,East,87,4.9,6.9,91,0.08,RA,OVC,0.24,0.0,WeatherDisplay:10.37,2013-02-22 08:36:00,
2013-02-22 03:38:00,34.7,32.3,30.39,East,87,3.5,4.6,91,0.08,RA,OVC,0.24,0.0,WeatherDisplay:10.37,2013-02-22 08:38:00,
2013-02-22 03:40:00,34.7,32.3,30.39,East,87,2.8,3.5,91,0.08,RA,OVC,0.24,0.0,WeatherDisplay:10.37,2013-02-22 08:40:00,
2013-02-22 03:42:00,34.7,32.3,30.39,East,87,2.4,3.5,91,0.08,RA,OVC,0.24,0.0,WeatherDisplay:10.37,2013-02-22 08:42:00,
2013-02-22 03:43:00,34.7,32.3,30.39,East,87,1.2,3.5,91,0.08,RA,OVC,0.25,0.0,WeatherDisplay:10.37,2013-02-22 08:43:00,
2013-02-22 03:47:00,34.7,32.3,30.39,East,87,0.0,1.2,91,0.08,RA,OVC,0.25,0.0,WeatherDisplay:10.37,2013-02-22 08:47:00,
2013-02-22 03:48:00,34.6,32.2,30.39,East,87,2.2,3.0,91,0.08,RA,OVC,0.25,0.0,WeatherDisplay:10.37,2013-02-22 08:48:00,
2013-02-22 03:49:00,34.6,32.2,30.39,East,87,2.4,3.0,91,0.08,RA,OVC,0.25,0.0,WeatherDisplay:10.37,2013-02-22 08:49:00,
2013-02-22 03:50:00,34.6,32.2,30.39,East,87,3.1,3.5,91,0.08,RA,OVC,0.25,0.0,WeatherDisplay:10.37,2013-02-22 08:50:00,
2013-02-22 03:54:00,34.4,32.0,30.39,East,87,3.0,4.6,91,0.07,,OVC,0.25,0.0,WeatherDisplay:10.37,2013-02-22 08:54:00,
2013-02-22 03:55:00,34.4,32.0,30.39,East,87,3.2,4.6,91,0.07,,OVC,0.25,0.0,WeatherDisplay:10.37,2013-02-22 08:55:00,
2013-02-22 03:57:00,34.3,31.9,30.39,ENE,77,5.7,7.0,91,0.07,,OVC,0.25,0.0,WeatherDisplay:10.37,2013-02-22 08:57:00,
2013-02-22 04:00:00,34.3,31.9,30.39,ENE,72,7.7,9.2,91,0.06,,OVC,0.25,0.0,WeatherDisplay:10.37,2013-02-22 09:00:00,
2013-02-22 04:01:00,34.3,32.2,30.39,ENE,71,7.3,9.2,92,0.06,,OVC,0.25,0.0,WeatherDisplay:10.37,2013-02-22 09:01:00,
2013-02-22 04:03:00,34.1,32.0,30.35,ENE,67,4.8,7.0,92,0.06,,OVC,0.25,0.0,WeatherDisplay:10.37,2013-02-22 09:03:00,
2013-02-22 04:04:00,34.1,32.0,30.35,ENE,67,5.6,9.0,92,0.06,,OVC,0.25,0.0,WeatherDisplay:10.37,2013-02-22 09:04:00,
2013-02-22 04:05:00,34.1,32.0,30.35,ENE,67,6.4,9.2,92,0.06,,OVC,0.25,0.0,WeatherDisplay:10.37,2013-02-22 09:05:00,
2013-02-22 04:08:00,34.1,32.0,30.35,ENE,63,5.5,9.2,92,0.05,,OVC,0.25,0.0,WeatherDisplay:10.37,2013-02-22 09:08:00,
2013-02-22 04:10:00,34.1,32.0,30.35,ENE,64,5.8,8.1,92,0.05,,OVC,0.25,0.0,WeatherDisplay:10.37,2013-02-22 09:10:00,
2013-02-22 04:11:00,34.1,32.0,30.35,ENE,65,6.9,9.2,92,0.05,,OVC,0.25,0.0,WeatherDisplay:10.37,2013-02-22 09:11:00,
2013-02-22 04:13:00,34.1,32.0,30.35,ENE,70,7.2,10.4,92,0.05,,OVC,0.25,0.0,WeatherDisplay:10.37,2013-02-22 09:13:00,
2013-02-22 04:16:00,34.1,32.0,30.35,ENE,72,4.6,9.2,92,0.04,,OVC,0.25,0.0,WeatherDisplay:10.37,2013-02-22 09:16:00,
2013-02-22 04:17:00,34.1,32.0,30.35,ENE,74,5.4,9.2,92,0.04,,OVC,0.25,0.0,WeatherDisplay:10.37,2013-02-22 09:17:00,
2013-02-22 04:20:00,34.1,32.0,30.33,ESE,103,7.2,10.4,92,0.04,,OVC,0.25,0.0,WeatherDisplay:10.37,2013-02-22 09:20:00,
2013-02-22 04:22:00,34.1,32.0,30.33,ESE,104,4.7,6.9,92,0.03,,OVC,0.25,0.0,WeatherDisplay:10.37,2013-02-22 09:22:00,
2013-02-22 04:23:00,34.1,32.0,30.33,ESE,103,3.4,4.6,92,0.03,,OVC,0.25,0.0,WeatherDisplay:10.37,2013-02-22 09:23:00,
2013-02-22 04:25:00,34.1,32.0,30.33,East,84,4.2,6.0,92,0.03,,OVC,0.25,0.0,WeatherDisplay:10.37,2013-02-22 09:25:00,
2013-02-22 04:27:00,34.1,32.0,30.33,NNE,28,5.2,9.2,92,0.03,,OVC,0.25,0.0,WeatherDisplay:10.37,2013-02-22 09:27:00,
2013-02-22 04:29:00,34.0,31.9,30.33,NE,36,5.1,10.4,92,0.02,,OVC,0.25,0.0,WeatherDisplay:10.37,2013-02-22 09:29:00,
2013-02-22 04:30:00,34.0,31.9,30.33,NE,36,4.9,5.8,92,0.02,,OVC,0.25,0.0,WeatherDisplay:10.37,2013-02-22 09:30:00,
2013-02-22 04:32:00,34.0,31.9,30.33,NE,37,4.4,9.0,92,0.02,,OVC,0.25,0.0,WeatherDisplay:10.37,2013-02-22 09:32:00,
2013-02-22 04:35:00,33.8,31.7,30.36,NE,40,5.2,8.1,92,0.02,,OVC,0.25,0.0,WeatherDisplay:10.37,2013-02-22 09:35:00,
2013-02-22 04:36:00,33.8,31.7,30.36,NE,41,4.6,8.1,92,0.02,,OVC,0.25,0.0,WeatherDisplay:10.37,2013-02-22 09:36:00,
2013-02-22 04:37:00,33.8,31.7,30.36,NE,40,3.3,8.1,92,0.01,,OVC,0.25,0.0,WeatherDisplay:10.37,2013-02-22 09:37:00,
2013-02-22 04:41:00,33.8,31.7,30.36,NE,36,2.5,4.6,92,0.01,,OVC,0.25,0.0,WeatherDisplay:10.37,2013-02-22 09:41:00,
2013-02-22 04:42:00,33.8,31.7,30.36,NE,37,2.8,6.0,92,0.01,,OVC,0.25,0.0,WeatherDisplay:10.37,2013-02-22 09:42:00,
2013-02-22 04:45:00,33.8,31.7,30.36,NE,37,4.7,7.0,92,0.01,RA,OVC,0.26,0.0,WeatherDisplay:10.37,2013-02-22 09:45:00,
2013-02-22 04:47:00,33.8,31.7,30.36,NE,42,5.5,6.0,92,0.01,RA,OVC,0.26,0.0,WeatherDisplay:10.37,2013-02-22 09:47:00,
2013-02-22 04:48:00,33.7,31.6,30.34,NE,44,5.9,8.1,92,0.01,RA,OVC,0.26,0.0,WeatherDisplay:10.37,2013-02-22 09:48:00,
2013-02-22 04:49:00,33.7,31.6,30.34,NE,44,6.0,9.2,92,0.01,RA,OVC,0.26,0.0,WeatherDisplay:10.37,2013-02-22 09:49:00,
2013-02-22 04:52:00,33.7,31.6,30.34,NE,49,5.2,7.0,92,0.01,RA,OVC,0.26,0.0,WeatherDisplay:10.37,2013-02-22 09:52:00,
2013-02-22 04:53:00,33.7,31.6,30.34,NE,53,5.3,6.9,92,0.01,RA,OVC,0.26,0.0,WeatherDisplay:10.37,2013-02-22 09:53:00,
2013-02-22 04:55:00,33.7,31.6,30.34,NE,53,3.7,9.2,92,0.01,,OVC,0.26,0.0,WeatherDisplay:10.37,2013-02-22 09:55:00,
2013-02-22 04:56:00,33.7,31.6,30.34,NE,53,4.1,5.0,92,0.01,,OVC,0.26,0.0,WeatherDisplay:10.37,2013-02-22 09:56:00,
2013-02-22 04:59:00,33.7,31.6,30.34,NE,53,2.6,4.0,92,0.01,,OVC,0.26,0.0,WeatherDisplay:10.37,2013-02-22 09:59:00,
2013-02-22 05:00:00,33.7,31.6,30.34,NE,53,2.6,3.5,92,0.01,,OVC,0.26,0.0,WeatherDisplay:10.37,2013-02-22 10:00:00,
2013-02-22 05:02:00,33.7,31.6,30.34,ENE,76,5.9,6.9,92,0.01,,OVC,0.26,0.0,WeatherDisplay:10.37,2013-02-22 10:02:00,
2013-02-22 05:04:00,33.7,31.6,30.34,ENE,77,6.6,7.0,92,0.01,,OVC,0.26,0.0,WeatherDisplay:10.37,2013-02-22 10:04:00,
2013-02-22 05:05:00,33.7,31.6,30.34,ENE,78,4.6,9.2,92,0.01,,OVC,0.26,0.0,WeatherDisplay:10.37,2013-02-22 10:05:00,
2013-02-22 05:06:00,33.7,31.6,30.34,ENE,78,4.1,6.0,92,0.01,,OVC,0.26,0.0,WeatherDisplay:10.37,2013-02-22 10:06:00,
2013-02-22 05:07:00,33.7,31.6,30.34,ENE,78,4.5,6.9,92,0.01,,OVC,0.26,0.0,WeatherDisplay:10.37,2013-02-22 10:07:00,
2013-02-22 05:10:00,33.8,31.7,30.34,ENE,78,4.7,6.0,92,0.01,,OVC,0.26,0.0,WeatherDisplay:10.37,2013-02-22 10:10:00,
2013-02-22 05:12:00,33.8,31.7,30.34,East,96,7.0,12.0,92,0.01,,OVC,0.26,0.0,WeatherDisplay:10.37,2013-02-22 10:12:00,
2013-02-22 05:13:00,33.8,31.7,30.34,ESE,102,8.7,10.0,92,0.01,,OVC,0.26,0.0,WeatherDisplay:10.37,2013-02-22 10:13:00,
2013-02-22 05:17:00,33.8,31.5,30.34,ESE,113,6.1,11.5,91,0.01,,OVC,0.26,0.0,WeatherDisplay:10.37,2013-02-22 10:17:00,
2013-02-22 05:18:00,33.8,31.5,30.33,ESE,119,6.8,11.5,91,0.01,,OVC,0.26,0.0,WeatherDisplay:10.37,2013-02-22 10:18:00,
2013-02-22 05:22:00,33.7,31.4,30.33,ESE,112,7.7,10.0,91,0.01,,OVC,0.26,0.0,WeatherDisplay:10.37,2013-02-22 10:22:00,
2013-02-22 05:23:00,33.7,31.4,30.33,ESE,109,9.3,10.0,91,0.01,,OVC,0.26,0.0,WeatherDisplay:10.37,2013-02-22 10:23:00,
2013-02-22 05:27:00,33.7,31.4,30.33,ESE,123,4.5,6.9,91,0.01,,OVC,0.26,0.0,WeatherDisplay:10.37,2013-02-22 10:27:00,
2013-02-22 05:28:00,33.7,31.4,30.33,East,88,6.2,9.2,91,0.01,,OVC,0.26,0.0,WeatherDisplay:10.37,2013-02-22 10:28:00,
2013-02-22 05:30:00,33.6,31.3,30.33,ESE,102,3.0,14.0,91,0.00,,OVC,0.26,0.0,WeatherDisplay:10.37,2013-02-22 10:30:00,
2013-02-22 05:32:00,33.5,31.2,30.33,NE,34,4.0,5.0,91,0.01,,OVC,0.26,0.0,WeatherDisplay:10.37,2013-02-22 10:32:00,
2013-02-22 05:33:00,33.5,31.2,30.36,NE,34,2.6,4.6,91,0.01,,OVC,0.26,0.0,WeatherDisplay:10.37,2013-02-22 10:33:00,
2013-02-22 05:35:00,33.5,31.2,30.36,NNE,23,4.6,6.0,91,0.01,,OVC,0.26,0.0,WeatherDisplay:10.37,2013-02-22 10:35:00,
2013-02-22 05:36:00,33.5,31.2,30.36,NNE,13,5.8,6.9,91,0.01,,OVC,0.26,0.0,WeatherDisplay:10.37,2013-02-22 10:36:00,
2013-02-22 05:39:00,33.5,31.2,30.36,North,360,5.8,8.0,91,0.01,,OVC,0.26,0.0,WeatherDisplay:10.37,2013-02-22 10:39:00,
2013-02-22 05:41:00,33.5,31.2,30.36,NNE,14,4.7,6.9,91,0.01,,OVC,0.26,0.0,WeatherDisplay:10.37,2013-02-22 10:41:00,
2013-02-22 05:42:00,33.4,31.1,30.36,NNE,22,5.6,9.2,91,0.01,,OVC,0.26,0.0,WeatherDisplay:10.37,2013-02-22 10:42:00,
2013-02-22 05:46:00,33.4,31.1,30.36,NNE,24,5.2,6.9,91,0.00,,OVC,0.26,0.0,WeatherDisplay:10.37,2013-02-22 10:46:00,
2013-02-22 05:47:00,33.4,31.1,30.36,NNE,24,4.7,6.9,91,0.00,,OVC,0.26,0.0,WeatherDisplay:10.37,2013-02-22 10:47:00,
2013-02-22 05:48:00,33.4,31.1,30.37,NNE,26,5.6,6.9,91,0.00,,OVC,0.26,0.0,WeatherDisplay:10.37,2013-02-22 10:48:00,
2013-02-22 05:52:00,33.2,30.9,30.37,NNE,32,5.2,7.0,91,0.00,,OVC,0.26,0.0,WeatherDisplay:10.37,2013-02-22 10:52:00,
2013-02-22 05:53:00,33.2,30.9,30.37,NE,38,6.5,8.1,91,0.00,,OVC,0.26,0.0,WeatherDisplay:10.37,2013-02-22 10:53:00,
2013-02-22 05:54:00,33.2,30.9,30.37,NE,38,4.6,5.8,91,0.00,,OVC,0.26,0.0,WeatherDisplay:10.37,2013-02-22 10:54:00,
2013-02-22 05:56:00,33.2,30.9,30.37,NE,38,3.4,6.0,91,0.00,,OVC,0.26,0.0,WeatherDisplay:10.37,2013-02-22 10:56:00,
2013-02-22 05:57:00,33.2,30.9,30.37,NE,42,4.8,6.9,91,0.00,,OVC,0.26,0.0,WeatherDisplay:10.37,2013-02-22 10:57:00,
2013-02-22 05:59:00,33.2,30.9,30.37,NE,49,5.0,5.8,91,0.00,,OVC,0.26,0.0,WeatherDisplay:10.37,2013-02-22 10:59:00,
2013-02-22 06:02:00,33.1,30.8,30.37,NE,54,6.7,6.9,91,0.00,,OVC,0.26,0.0,WeatherDisplay:10.37,2013-02-22 11:02:00,
2013-02-22 06:04:00,33.1,30.8,30.37,ENE,60,5.7,6.9,91,0.00,,OVC,0.26,0.0,WeatherDisplay:10.37,2013-02-22 11:04:00,
2013-02-22 06:05:00,33.1,30.8,30.37,ENE,65,5.5,8.1,91,0.00,,OVC,0.26,0.0,WeatherDisplay:10.37,2013-02-22 11:05:00,
2013-02-22 06:07:00,33.2,30.9,30.37,East,95,6.1,6.9,91,0.00,,OVC,0.26,0.0,WeatherDisplay:10.37,2013-02-22 11:07:00,
2013-02-22 06:11:00,33.2,30.9,30.37,East,94,5.6,9.0,91,0.00,,OVC,0.26,0.0,WeatherDisplay:10.37,2013-02-22 11:11:00,
2013-02-22 06:13:00,33.1,30.5,30.37,ENE,69,6.8,9.2,90,0.00,,OVC,0.26,0.0,WeatherDisplay:10.37,2013-02-22 11:13:00,
2013-02-22 06:14:00,33.1,30.5,30.37,ENE,69,6.3,7.0,90,0.00,,OVC,0.26,0.0,WeatherDisplay:10.37,2013-02-22 11:14:00,
2013-02-22 06:16:00,33.1,30.5,30.37,ENE,75,6.4,9.2,90,0.00,,OVC,0.26,0.0,WeatherDisplay:10.37,2013-02-22 11:16:00,
2013-02-22 06:17:00,33.1,30.5,30.37,ENE,75,4.6,9.2,90,0.00,,OVC,0.26,0.0,WeatherDisplay:10.37,2013-02-22 11:17:00,
2013-02-22 06:18:00,33.1,30.5,30.37,ENE,74,4.4,5.0,90,0.00,,OVC,0.26,0.0,WeatherDisplay:10.37,2013-02-22 11:18:00,
2013-02-22 06:22:00,33.1,30.2,30.37,ENE,74,4.8,6.9,89,0.00,,OVC,0.26,0.0,WeatherDisplay:10.37,2013-02-22 11:22:00,
2013-02-22 06:23:00,33.1,30.2,30.37,ENE,73,5.1,6.0,89,0.00,,OVC,0.26,0.0,WeatherDisplay:10.37,2013-02-22 11:23:00,
2013-02-22 06:27:00,33.1,30.2,30.37,ENE,73,4.7,5.8,89,0.00,,OVC,0.26,0.0,WeatherDisplay:10.37,2013-02-22 11:27:00,
2013-02-22 06:28:00,33.1,30.2,30.37,ENE,74,5.1,7.0,89,0.00,,OVC,0.26,0.0,WeatherDisplay:10.37,2013-02-22 11:28:00,
2013-02-22 06:29:00,33.1,30.2,30.37,ENE,76,4.2,6.9,89,0.00,OVC,,0.26,0.0,WeatherDisplay:10.37,2013-02-22 11:29:00,
2013-02-22 06:33:00,32.9,30.0,30.37,ENE,74,3.6,5.8,89,0.00,OVC,,0.26,0.0,WeatherDisplay:10.37,2013-02-22 11:33:00,
2013-02-22 06:34:00,32.9,30.0,30.37,ENE,70,4.4,5.8,89,0.00,OVC,,0.26,0.0,WeatherDisplay:10.37,2013-02-22 11:34:00,
2013-02-22 06:35:00,32.9,30.0,30.37,ENE,69,5.5,6.9,89,0.00,OVC,,0.26,0.0,WeatherDisplay:10.37,2013-02-22 11:35:00,
2013-02-22 06:36:00,32.9,30.0,30.37,ENE,69,4.4,5.8,89,0.00,OVC,,0.26,0.0,WeatherDisplay:10.37,2013-02-22 11:36:00,
2013-02-22 06:39:00,32.9,30.0,30.37,ENE,65,3.4,5.8,89,0.00,OVC,,0.26,0.0,WeatherDisplay:10.37,2013-02-22 11:39:00,
2013-02-22 06:42:00,32.8,29.9,30.37,ENE,65,3.4,4.6,89,0.00,OVC,,0.26,0.0,WeatherDisplay:10.37,2013-02-22 11:42:00,
2013-02-22 06:43:00,32.8,29.9,30.37,ENE,65,2.8,4.6,89,0.00,OVC,,0.26,0.0,WeatherDisplay:10.37,2013-02-22 11:43:00,
2013-02-22 06:45:00,32.8,29.9,30.37,ENE,66,2.0,9.0,89,0.00,OVC,OVC,0.26,0.0,WeatherDisplay:10.37,2013-02-22 11:45:00,
2013-02-22 06:46:00,32.8,29.9,30.37,ENE,65,2.5,4.6,89,0.00,OVC,,0.26,0.0,WeatherDisplay:10.37,2013-02-22 11:46:00,
2013-02-22 06:48:00,32.8,29.9,30.39,ENE,65,3.3,4.6,89,0.00,OVC,,0.26,0.0,WeatherDisplay:10.37,2013-02-22 11:48:00,
2013-02-22 06:50:00,32.8,29.9,30.39,ENE,65,0.0,3.5,89,0.00,OVC,,0.26,0.0,WeatherDisplay:10.37,2013-02-22 11:50:00,
2013-02-22 06:51:00,32.9,30.0,30.39,ENE,65,0.0,0.0,89,0.00,OVC,,0.26,0.0,WeatherDisplay:10.37,2013-02-22 11:51:00,
2013-02-22 06:53:00,32.9,30.0,30.39,ENE,65,0.0,0.0,89,0.00,OVC,,0.26,0.0,WeatherDisplay:10.37,2013-02-22 11:53:00,
2013-02-22 06:55:00,32.9,30.0,30.39,ENE,65,2.6,3.5,89,0.00,OVC,,0.26,0.0,WeatherDisplay:10.37,2013-02-22 11:55:00,
2013-02-22 06:56:00,32.9,30.0,30.39,ENE,65,0.9,3.5,89,0.00,OVC,,0.26,0.0,WeatherDisplay:10.37,2013-02-22 11:56:00,
2013-02-22 06:59:00,32.9,30.0,30.39,ENE,65,0.0,0.0,89,0.00,OVC,,0.26,0.0,WeatherDisplay:10.37,2013-02-22 11:59:00,
2013-02-22 07:02:00,32.9,30.0,30.39,ENE,65,1.7,3.5,89,0.00,OVC,,0.26,0.0,WeatherDisplay:10.37,2013-02-22 12:02:00,
2013-02-22 07:03:00,32.9,30.0,30.41,ENE,65,2.3,3.5,89,0.00,OVC,,0.26,0.0,WeatherDisplay:10.37,2013-02-22 12:03:00,
2013-02-22 07:06:00,32.9,30.0,30.41,ENE,65,3.0,3.5,89,0.00,OVC,,0.26,0.0,WeatherDisplay:10.37,2013-02-22 12:06:00,
2013-02-22 07:07:00,32.9,30.0,30.41,ENE,65,2.0,4.0,89,0.00,OVC,,0.26,0.0,WeatherDisplay:10.37,2013-02-22 12:07:00,
2013-02-22 07:08:00,32.9,30.0,30.41,ENE,65,3.1,3.5,89,0.00,OVC,,0.26,0.0,WeatherDisplay:10.37,2013-02-22 12:08:00,
2013-02-22 07:09:00,33.1,30.2,30.41,ENE,65,0.5,3.5,89,0.00,OVC,,0.26,0.0,WeatherDisplay:10.37,2013-02-22 12:09:00,
2013-02-22 07:11:00,33.1,30.2,30.41,ENE,65,0.0,0.0,89,0.00,OVC,,0.26,0.0,WeatherDisplay:10.37,2013-02-22 12:11:00,
2013-02-22 07:13:00,32.9,30.0,30.41,ENE,65,0.0,0.0,89,0.00,OVC,,0.26,0.0,WeatherDisplay:10.37,2013-02-22 12:13:00,
2013-02-22 07:14:00,32.9,30.0,30.41,ENE,65,0.0,0.0,89,0.00,OVC,,0.26,0.0,WeatherDisplay:10.37,2013-02-22 12:14:00,
2013-02-22 07:17:00,32.9,30.0,30.41,ENE,65,1.5,3.5,89,0.00,OVC,,0.26,0.0,WeatherDisplay:10.37,2013-02-22 12:17:00,
2013-02-22 07:18:00,32.9,30.0,30.41,ENE,65,0.0,0.0,89,0.00,OVC,,0.26,0.0,WeatherDisplay:10.37,2013-02-22 12:18:00,
2013-02-22 07:19:00,32.9,30.0,30.41,ENE,65,0.0,0.0,89,0.00,OVC,,0.26,0.0,WeatherDisplay:10.37,2013-02-22 12:19:00,
2013-02-22 07:23:00,32.9,30.0,30.41,ENE,65,2.5,3.5,89,0.00,OVC,,0.26,5.0,WeatherDisplay:10.37,2013-02-22 12:23:00,
2013-02-22 07:24:00,32.9,30.0,30.41,ENE,65,2.2,3.5,89,0.00,OVC,,0.26,5.0,WeatherDisplay:10.37,2013-02-22 12:24:00,
2013-02-22 07:25:00,32.9,30.0,30.41,ENE,65,1.3,3.5,89,0.00,OVC,,0.26,5.0,WeatherDisplay:10.37,2013-02-22 12:25:00,
2013-02-22 07:29:00,32.9,30.0,30.41,ENE,65,0.7,4.0,89,0.00,OVC,,0.26,9.0,WeatherDisplay:10.37,2013-02-22 12:29:00,
2013-02-22 07:31:00,32.9,30.0,30.41,ENE,65,3.8,5.0,89,0.00,OVC,,0.26,11.0,WeatherDisplay:10.37,2013-02-22 12:31:00,
2013-02-22 07:32:00,32.9,30.0,30.41,ENE,65,4.1,4.1,89,0.00,OVC,,0.26,11.0,WeatherDisplay:10.37,2013-02-22 12:32:00,
2013-02-22 07:33:00,32.8,29.9,30.40,ENE,65,4.2,4.6,89,0.00,OVC,,0.26,12.0,WeatherDisplay:10.37,2013-02-22 12:33:00,
2013-02-22 07:35:00,32.8,29.9,30.40,ENE,65,2.8,4.6,89,0.00,OVC,,0.26,12.0,WeatherDisplay:10.37,2013-02-22 12:35:00,
2013-02-22 07:36:00,32.8,30.2,30.40,ENE,65,3.3,5.0,90,0.00,OVC,,0.26,12.0,WeatherDisplay:10.37,2013-02-22 12:36:00,
2013-02-22 07:37:00,32.8,30.2,30.40,ENE,65,2.2,4.6,90,0.00,OVC,,0.26,12.0,WeatherDisplay:10.37,2013-02-22 12:37:00,
2013-02-22 07:38:00,32.8,30.2,30.40,ENE,65,0.6,3.5,90,0.00,OVC,,0.26,12.0,WeatherDisplay:10.37,2013-02-22 12:38:00,
2013-02-22 07:40:00,32.8,30.2,30.40,ENE,65,1.1,3.0,90,0.00,OVC,,0.26,12.0,WeatherDisplay:10.37,2013-02-22 12:40:00,
2013-02-22 07:42:00,32.8,30.2,30.40,ENE,65,1.4,2.0,90,0.00,OVC,,0.26,16.0,WeatherDisplay:10.37,2013-02-22 12:42:00,
2013-02-22 07:43:00,32.8,30.2,30.40,ENE,65,2.3,3.5,90,0.00,OVC,,0.26,16.0,WeatherDisplay:10.37,2013-02-22 12:43:00,
2013-02-22 07:45:00,32.8,30.2,30.40,ENE,65,2.5,3.5,90,0.00,OVC,,0.26,18.0,WeatherDisplay:10.37,2013-02-22 12:45:00,
2013-02-22 07:48:00,32.8,30.2,30.41,ENE,65,3.6,5.0,90,0.00,OVC,,0.26,21.0,WeatherDisplay:10.37,2013-02-22 12:48:00,
2013-02-22 07:49:00,32.8,30.2,30.41,ENE,65,5.0,5.8,90,0.00,OVC,,0.26,21.0,WeatherDisplay:10.37,2013-02-22 12:49:00,
2013-02-22 07:50:00,32.8,30.2,30.41,ENE,65,4.0,5.8,90,0.00,OVC,,0.26,21.0,WeatherDisplay:10.37,2013-02-22 12:50:00,
2013-02-22 07:53:00,32.8,30.2,30.41,ENE,66,4.3,5.8,90,0.00,OVC,,0.26,26.0,WeatherDisplay:10.37,2013-02-22 12:53:00,
2013-02-22 07:55:00,32.8,30.2,30.41,ENE,66,4.8,4.8,90,0.00,OVC,,0.26,28.0,WeatherDisplay:10.37,2013-02-22 12:55:00,
2013-02-22 07:59:00,32.9,30.3,30.41,ENE,66,4.1,4.6,90,0.00,OVC,,0.26,30.0,WeatherDisplay:10.37,2013-02-22 12:59:00,
2013-02-22 08:00:00,32.9,30.3,30.41,ENE,66,3.2,4.6,90,0.00,OVC,,0.26,30.0,WeatherDisplay:10.37,2013-02-22 13:00:00,
2013-02-22 08:04:00,33.1,30.5,30.40,ENE,66,3.1,4.0,90,0.00,OVC,,0.26,33.0,WeatherDisplay:10.37,2013-02-22 13:04:00,
2013-02-22 08:05:00,33.1,30.5,30.40,ENE,66,3.6,5.0,90,0.00,OVC,,0.26,33.0,WeatherDisplay:10.37,2013-02-22 13:05:00,
2013-02-22 08:06:00,33.1,30.5,30.40,ENE,66,4.6,5.8,90,0.00,OVC,,0.26,37.0,WeatherDisplay:10.37,2013-02-22 13:06:00,
2013-02-22 08:10:00,32.9,30.3,30.40,ENE,67,4.5,6.9,90,0.00,OVC,,0.26,42.0,WeatherDisplay:10.37,2013-02-22 13:10:00,
2013-02-22 08:11:00,32.9,30.3,30.40,ENE,67,2.6,5.8,90,0.00,OVC,,0.26,42.0,WeatherDisplay:10.37,2013-02-22 13:11:00,
2013-02-22 08:12:00,32.9,30.3,30.40,ENE,67,2.8,5.8,90,0.00,OVC,,0.26,42.0,WeatherDisplay:10.37,2013-02-22 13:12:00,
2013-02-22 08:15:00,32.9,30.3,30.40,ENE,67,2.0,7.0,90,0.00,OVC,OVC,0.26,42.0,WeatherDisplay:10.37,2013-02-22 13:15:00,
2013-02-22 08:16:00,32.9,30.3,30.40,ENE,67,3.3,4.6,90,0.00,OVC,,0.26,42.0,WeatherDisplay:10.37,2013-02-22 13:16:00,
2013-02-22 08:17:00,32.9,30.3,30.40,ENE,67,2.9,4.6,90,0.00,OVC,,0.26,42.0,WeatherDisplay:10.37,2013-02-22 13:17:00,
2013-02-22 08:19:00,33.1,30.5,30.41,ENE,67,2.2,3.5,90,0.00,OVC,,0.26,42.0,WeatherDisplay:10.37,2013-02-22 13:19:00,
2013-02-22 08:22:00,33.1,30.5,30.41,ENE,67,1.1,2.3,90,0.00,OVC,,0.26,42.0,WeatherDisplay:10.37,2013-02-22 13:22:00,
2013-02-22 08:23:00,33.1,30.5,30.41,ENE,67,0.0,2.3,90,0.00,OVC,,0.26,42.0,WeatherDisplay:10.37,2013-02-22 13:23:00,
2013-02-22 08:25:00,33.1,30.5,30.41,ENE,67,2.5,4.0,90,0.00,OVC,,0.26,44.0,WeatherDisplay:10.37,2013-02-22 13:25:00,
2013-02-22 08:26:00,33.1,30.5,30.41,ENE,67,3.6,4.0,90,0.00,OVC,,0.26,44.0,WeatherDisplay:10.37,2013-02-22 13:26:00,
2013-02-22 08:27:00,33.1,30.5,30.41,ENE,67,3.6,4.6,90,0.00,OVC,,0.26,42.0,WeatherDisplay:10.37,2013-02-22 13:27:00,
2013-02-22 08:30:00,33.1,30.5,30.41,ENE,67,3.0,5.0,90,0.00,OVC,OVC,0.26,40.0,WeatherDisplay:10.37,2013-02-22 13:30:00,
2013-02-22 08:31:00,33.1,30.5,30.41,ENE,67,3.3,3.5,90,0.00,OVC,,0.26,42.0,WeatherDisplay:10.37,2013-02-22 13:31:00,
2013-02-22 08:32:00,33.1,30.5,30.41,ENE,67,4.3,5.8,90,0.00,OVC,,0.26,42.0,WeatherDisplay:10.37,2013-02-22 13:32:00,
2013-02-22 08:33:00,33.1,30.5,30.42,ENE,67,4.1,5.0,90,0.00,OVC,,0.26,44.0,WeatherDisplay:10.37,2013-02-22 13:33:00,
2013-02-22 08:35:00,33.1,30.5,30.42,ENE,70,5.1,6.9,90,0.00,OVC,,0.26,46.0,WeatherDisplay:10.37,2013-02-22 13:35:00,
2013-02-22 08:36:00,33.1,30.5,30.42,ENE,70,4.0,6.9,90,0.00,OVC,,0.26,44.0,WeatherDisplay:10.37,2013-02-22 13:36:00,
2013-02-22 08:37:00,33.1,30.5,30.42,ENE,70,2.8,3.5,90,0.00,OVC,,0.26,42.0,WeatherDisplay:10.37,2013-02-22 13:37:00,
2013-02-22 08:38:00,33.1,30.5,30.42,ENE,69,4.1,7.0,90,0.00,OVC,,0.26,42.0,WeatherDisplay:10.37,2013-02-22 13:38:00,
2013-02-22 08:42:00,33.1,30.2,30.42,ENE,60,4.5,5.8,89,0.00,OVC,,0.26,37.0,WeatherDisplay:10.37,2013-02-22 13:42:00,
2013-02-22 08:43:00,33.1,30.2,30.42,NE,56,6.2,9.2,89,0.00,OVC,,0.26,42.0,WeatherDisplay:10.37,2013-02-22 13:43:00,
2013-02-22 08:47:00,33.1,30.2,30.42,NE,51,4.2,6.9,89,0.00,OVC,,0.26,44.0,WeatherDisplay:10.37,2013-02-22 13:47:00,
2013-02-22 08:49:00,33.1,30.2,30.40,NE,51,4.4,4.6,89,0.00,OVC,,0.26,47.0,WeatherDisplay:10.37,2013-02-22 13:49:00,
2013-02-22 08:50:00,33.1,30.2,30.40,NE,51,4.7,6.0,89,0.00,OVC,,0.26,47.0,WeatherDisplay:10.37,2013-02-22 13:50:00,
2013-02-22 08:53:00,33.1,30.2,30.40,NE,56,6.3,9.2,89,0.00,OVC,,0.26,51.0,WeatherDisplay:10.37,2013-02-22 13:53:00,
2013-02-22 08:54:00,33.1,30.2,30.40,NE,56,6.3,9.2,89,0.00,OVC,,0.26,51.0,WeatherDisplay:10.37,2013-02-22 13:54:00,
2013-02-22 08:59:00,33.2,30.3,30.40,NE,56,4.3,6.9,89,0.00,OVC,,0.26,76.0,WeatherDisplay:10.37,2013-02-22 13:59:00,
2013-02-22 09:00:00,33.2,30.3,30.40,NE,56,3.2,4.6,89,0.00,OVC,,0.26,90.0,WeatherDisplay:10.37,2013-02-22 14:00:00,
2013-02-22 09:01:00,33.2,30.3,30.40,NE,56,2.9,4.6,89,0.00,OVC,,0.26,90.0,WeatherDisplay:10.37,2013-02-22 14:01:00,
2013-02-22 09:05:00,33.4,30.5,30.40,ENE,59,5.3,6.9,89,0.00,OVC,,0.26,102.0,WeatherDisplay:10.37,2013-02-22 14:05:00,
2013-02-22 09:06:00,33.4,30.5,30.40,ENE,59,4.8,6.9,89,0.00,OVC,,0.26,102.0,WeatherDisplay:10.37,2013-02-22 14:06:00,
2013-02-22 09:07:00,33.4,30.5,30.40,ENE,63,5.7,8.0,89,0.00,OVC,,0.26,97.0,WeatherDisplay:10.37,2013-02-22 14:07:00,
2013-02-22 09:11:00,33.4,30.5,30.40,NE,49,5.9,7.0,89,0.00,OVC,,0.26,100.0,WeatherDisplay:10.37,2013-02-22 14:11:00,
2013-02-22 09:12:00,33.4,30.2,30.40,NE,46,6.3,8.1,88,0.00,OVC,,0.26,104.0,WeatherDisplay:10.37,2013-02-22 14:12:00,
2013-02-22 09:15:00,33.4,30.2,30.40,NE,51,6.0,9.0,88,0.00,OVC,OVC,0.26,90.0,WeatherDisplay:10.37,2013-02-22 14:15:00,
2013-02-22 09:17:00,33.4,30.2,30.40,NE,49,5.4,6.9,88,0.00,OVC,,0.26,97.0,WeatherDisplay:10.37,2013-02-22 14:17:00,
2013-02-22 09:18:00,33.4,30.2,30.39,NE,48,5.8,6.9,88,0.00,OVC,,0.26,104.0,WeatherDisplay:10.37,2013-02-22 14:18:00,
2013-02-22 09:19:00,33.4,30.2,30.39,NE,48,5.0,5.8,88,0.00,OVC,,0.26,105.0,WeatherDisplay:10.37,2013-02-22 14:19:00,
2013-02-22 09:20:00,33.4,30.2,30.39,NE,48,4.7,7.0,88,0.00,OVC,,0.26,105.0,WeatherDisplay:10.37,2013-02-22 14:20:00,
2013-02-22 09:24:00,33.5,30.3,30.39,NE,48,4.5,5.8,88,0.00,OVC,,0.26,81.0,WeatherDisplay:10.37,2013-02-22 14:24:00,
2013-02-22 09:25:00,33.5,30.3,30.39,NE,48,5.3,6.0,88,0.00,OVC,,0.26,77.0,WeatherDisplay:10.37,2013-02-22 14:25:00,
2013-02-22 09:27:00,33.5,30.3,30.39,NE,48,4.6,6.0,88,0.00,OVC,,0.26,81.0,WeatherDisplay:10.37,2013-02-22 14:27:00,
2013-02-22 09:29:00,33.7,30.5,30.39,NE,48,3.0,5.8,88,0.00,OVC,,0.26,88.0,WeatherDisplay:10.37,2013-02-22 14:29:00,
2013-02-22 09:32:00,33.7,30.5,30.39,NE,42,8.2,10.4,88,0.00,OVC,,0.26,95.0,WeatherDisplay:10.37,2013-02-22 14:32:00,
2013-02-22 09:34:00,33.5,30.3,30.39,NE,43,6.9,8.0,88,0.00,OVC,,0.26,100.0,WeatherDisplay:10.37,2013-02-22 14:34:00,
2013-02-22 09:35:00,33.5,30.3,30.39,NE,47,7.5,11.5,88,0.00,OVC,,0.26,91.0,WeatherDisplay:10.37,2013-02-22 14:35:00,
2013-02-22 09:37:00,33.5,30.0,30.39,NE,46,6.6,10.4,87,0.00,OVC,,0.26,107.0,WeatherDisplay:10.37,2013-02-22 14:37:00,
2013-02-22 09:39:00,33.5,30.0,30.39,NE,44,6.1,9.2,87,0.00,OVC,,0.26,125.0,WeatherDisplay:10.37,2013-02-22 14:39:00,
2013-02-22 09:40:00,33.5,30.0,30.39,NE,44,5.4,9.2,87,0.00,OVC,,0.26,125.0,WeatherDisplay:10.37,2013-02-22 14:40:00,
2013-02-22 09:41:00,33.5,30.0,30.39,NE,44,4.0,5.8,87,0.00,OVC,,0.26,121.0,WeatherDisplay:10.37,2013-02-22 14:41:00,
2013-02-22 09:42:00,33.5,30.0,30.39,NE,45,5.9,5.9,87,0.00,OVC,,0.26,125.0,WeatherDisplay:10.37,2013-02-22 14:42:00,
2013-02-22 09:45:00,33.7,30.2,30.39,NE,45,6.5,8.1,87,0.00,OVC,,0.26,144.0,WeatherDisplay:10.37,2013-02-22 14:45:00,
2013-02-22 09:46:00,33.7,30.2,30.39,NE,45,4.9,8.1,87,0.00,OVC,,0.26,144.0,WeatherDisplay:10.37,2013-02-22 14:46:00,
2013-02-22 09:47:00,33.7,30.2,30.39,NE,46,5.1,7.0,87,0.00,OVC,,0.26,141.0,WeatherDisplay:10.37,2013-02-22 14:47:00,
2013-02-22 09:49:00,33.7,30.2,30.39,NE,49,6.3,9.0,87,0.00,OVC,,0.26,141.0,WeatherDisplay:10.37,2013-02-22 14:49:00,
2013-02-22 09:52:00,33.8,30.3,30.39,NE,53,5.2,6.9,87,0.00,OVC,,0.26,146.0,WeatherDisplay:10.37,2013-02-22 14:52:00,
2013-02-22 09:53:00,34.0,30.5,30.39,ENE,61,6.2,9.2,87,0.00,OVC,,0.26,146.0,WeatherDisplay:10.37,2013-02-22 14:53:00,
2013-02-22 09:54:00,34.0,30.5,30.39,NE,38,6.6,9.2,87,0.00,OVC,,0.26,146.0,WeatherDisplay:10.37,2013-02-22 14:54:00,
2013-02-22 09:55:00,34.0,30.5,30.39,NE,41,7.3,10.4,87,0.00,OVC,,0.26,141.0,WeatherDisplay:10.37,2013-02-22 14:55:00,
2013-02-22 09:58:00,33.8,30.3,30.39,NE,44,7.0,9.2,87,0.00,OVC,,0.26,130.0,WeatherDisplay:10.37,2013-02-22 14:58:00,
2013-02-22 10:00:00,33.8,30.1,30.39,NE,53,7.5,10.0,86,0.00,OVC,,0.26,130.0,WeatherDisplay:10.37,2013-02-22 15:00:00,
2013-02-22 10:01:00,33.8,30.1,30.39,NE,53,5.9,10.4,86,0.00,OVC,,0.26,127.0,WeatherDisplay:10.37,2013-02-22 15:01:00,
2013-02-22 10:05:00,34.0,30.5,30.39,ENE,73,4.4,9.2,87,0.00,OVC,,0.26,151.0,WeatherDisplay:10.37,2013-02-22 15:05:00,
2013-02-22 10:06:00,34.0,30.3,30.39,ENE,74,6.8,9.2,86,0.00,OVC,,0.26,153.0,WeatherDisplay:10.37,2013-02-22 15:06:00,
2013-02-22 10:07:00,34.0,30.3,30.39,ENE,74,3.7,5.8,86,0.00,OVC,,0.26,153.0,WeatherDisplay:10.37,2013-02-22 15:07:00,
2013-02-22 10:11:00,34.3,30.8,30.39,NE,51,6.1,8.1,87,0.01,RA,OVC,0.27,144.0,WeatherDisplay:10.37,2013-02-22 15:11:00,
2013-02-22 10:13:00,34.3,30.5,30.39,NE,51,5.6,8.1,86,0.01,RA,OVC,0.27,118.0,WeatherDisplay:10.37,2013-02-22 15:13:00,
2013-02-22 10:14:00,34.3,30.5,30.39,NE,51,4.4,5.8,86,0.01,RA,OVC,0.27,111.0,WeatherDisplay:10.37,2013-02-22 15:14:00,
2013-02-22 10:18:00,34.3,30.5,30.39,ENE,73,7.4,9.2,86,0.01,RA,OVC,0.27,105.0,WeatherDisplay:10.37,2013-02-22 15:18:00,
2013-02-22 10:19:00,34.3,30.3,30.39,ENE,74,5.7,8.1,85,0.01,OVC,,0.27,100.0,WeatherDisplay:10.37,2013-02-22 15:19:00,
2013-02-22 10:21:00,34.3,30.3,30.39,East,79,5.5,9.2,85,0.01,OVC,,0.27,91.0,WeatherDisplay:10.37,2013-02-22 15:21:00,
2013-02-22 10:23:00,34.3,30.3,30.39,East,80,4.9,6.9,85,0.01,OVC,,0.27,83.0,WeatherDisplay:10.37,2013-02-22 15:23:00,
2013-02-22 10:24:00,34.3,30.3,30.39,ENE,70,5.3,6.9,85,0.01,OVC,,0.27,84.0,WeatherDisplay:10.37,2013-02-22 15:24:00,
2013-02-22 10:26:00,34.3,30.3,30.39,ENE,68,4.8,6.9,85,0.01,OVC,,0.27,90.0,WeatherDisplay:10.37,2013-02-22 15:26:00,
2013-02-22 10:29:00,34.3,30.3,30.39,ENE,64,3.0,4.6,85,0.01,OVC,,0.27,95.0,WeatherDisplay:10.37,2013-02-22 15:29:00,
2013-02-22 10:30:00,34.3,30.3,30.39,ENE,71,3.0,9.0,85,0.00,OVC,OVC,0.27,93.0,WeatherDisplay:10.37,2013-02-22 15:30:00,
2013-02-22 10:32:00,34.3,30.3,30.39,ENE,65,3.9,4.6,85,0.01,OVC,,0.27,93.0,WeatherDisplay:10.37,2013-02-22 15:32:00,
2013-02-22 10:35:00,34.4,30.4,30.40,ENE,70,5.4,7.0,85,0.01,OVC,,0.27,95.0,WeatherDisplay:10.37,2013-02-22 15:35:00,
2013-02-22 10:38:00,34.4,30.4,30.40,East,80,5.2,8.1,85,0.01,OVC,,0.27,105.0,WeatherDisplay:10.37,2013-02-22 15:38:00,
2013-02-22 10:40:00,34.4,30.1,30.40,East,82,6.5,9.2,84,0.01,OVC,,0.27,116.0,WeatherDisplay:10.37,2013-02-22 15:40:00,
2013-02-22 10:43:00,34.3,30.0,30.40,ENE,77,6.3,9.2,84,0.01,OVC,,0.27,123.0,WeatherDisplay:10.37,2013-02-22 15:43:00,
2013-02-22 10:46:00,34.4,30.4,30.40,ENE,78,4.7,9.2,85,0.01,OVC,,0.27,135.0,WeatherDisplay:10.37,2013-02-22 15:46:00,
2013-02-22 10:49:00,34.6,30.6,30.39,East,82,4.7,8.1,85,0.01,OVC,,0.27,109.0,WeatherDisplay:10.37,2013-02-22 15:49:00,
2013-02-22 10:51:00,34.7,30.4,30.39,East,83,5.1,5.8,84,0.01,OVC,,0.27,104.0,WeatherDisplay:10.37,2013-02-22 15:51:00,
2013-02-22 10:52:00,34.7,30.4,30.39,East,83,5.3,7.0,84,0.01,OVC,,0.27,105.0,WeatherDisplay:10.37,2013-02-22 15:52:00,
2013-02-22 10:54:00,34.7,30.4,30.39,East,83,4.4,6.9,84,0.01,OVC,,0.27,111.0,WeatherDisplay:10.37,2013-02-22 15:54:00,
2013-02-22 10:56:00,34.7,30.4,30.39,East,83,2.7,4.6,84,0.01,OVC,,0.27,120.0,WeatherDisplay:10.37,2013-02-22 15:56:00,
2013-02-22 10:57:00,34.7,30.4,30.39,East,83,2.4,3.5,84,0.01,OVC,,0.27,116.0,WeatherDisplay:10.37,2013-02-22 15:57:00,
2013-02-22 10:59:00,34.9,30.8,30.39,East,83,3.6,5.0,85,0.01,OVC,,0.27,109.0,WeatherDisplay:10.37,2013-02-22 15:59:00,
2013-02-22 11:01:00,34.9,30.6,30.39,East,83,1.9,3.5,84,0.01,OVC,,0.27,107.0,WeatherDisplay:10.37,2013-02-22 16:01:00,
2013-02-22 11:03:00,34.9,30.6,30.39,East,83,4.3,5.0,84,0.01,OVC,,0.27,105.0,WeatherDisplay:10.37,2013-02-22 16:03:00,
2013-02-22 11:04:00,34.9,30.6,30.39,East,89,4.7,6.0,84,0.01,OVC,,0.27,104.0,WeatherDisplay:10.37,2013-02-22 16:04:00,
2013-02-22 11:05:00,35.0,30.7,30.39,East,90,5.3,6.9,84,0.01,OVC,,0.27,97.0,WeatherDisplay:10.37,2013-02-22 16:05:00,
2013-02-22 11:07:00,35.0,30.7,30.39,East,90,3.9,4.0,84,0.01,OVC,,0.27,88.0,WeatherDisplay:10.37,2013-02-22 16:07:00,
2013-02-22 11:08:00,35.0,30.7,30.39,East,90,3.6,4.6,84,0.01,OVC,,0.27,90.0,WeatherDisplay:10.37,2013-02-22 16:08:00,
2013-02-22 11:09:00,35.0,30.7,30.39,East,90,2.6,3.5,84,0.00,OVC,,0.27,90.0,WeatherDisplay:10.37,2013-02-22 16:09:00,
2013-02-22 11:13:00,35.0,30.7,30.39,East,90,1.1,3.5,84,0.00,OVC,,0.27,81.0,WeatherDisplay:10.37,2013-02-22 16:13:00,
2013-02-22 11:14:00,35.0,30.7,30.39,East,90,0.9,3.5,84,0.00,OVC,,0.27,72.0,WeatherDisplay:10.37,2013-02-22 16:14:00,
2013-02-22 11:15:00,35.0,30.7,30.39,East,90,0.9,3.5,84,0.00,OVC,,0.27,72.0,WeatherDisplay:10.37,2013-02-22 16:15:00,
2013-02-22 11:18:00,34.9,30.6,30.40,East,90,0.0,0.0,84,0.00,OVC,,0.27,63.0,WeatherDisplay:10.37,2013-02-22 16:18:00,
2013-02-22 11:20:00,34.9,30.6,30.40,East,90,0.0,0.0,84,0.00,OVC,,0.27,63.0,WeatherDisplay:10.37,2013-02-22 16:20:00,
2013-02-22 11:21:00,34.9,30.6,30.40,East,90,0.0,0.0,84,0.00,OVC,,0.27,65.0,WeatherDisplay:10.37,2013-02-22 16:21:00,
2013-02-22 11:24:00,34.9,30.6,30.40,East,90,0.0,0.0,84,0.00,OVC,,0.27,62.0,WeatherDisplay:10.37,2013-02-22 16:24:00,
2013-02-22 11:25:00,34.9,30.6,30.40,East,90,0.0,0.0,84,0.00,OVC,,0.27,62.0,WeatherDisplay:10.37,2013-02-22 16:25:00,
2013-02-22 11:30:00,34.9,30.6,30.40,East,90,0.0,0.0,84,0.00,OVC,,0.27,90.0,WeatherDisplay:10.37,2013-02-22 16:30:00,
2013-02-22 11:31:00,34.9,30.6,30.40,East,90,0.0,0.0,84,0.00,OVC,,0.27,90.0,WeatherDisplay:10.37,2013-02-22 16:31:00,
2013-02-22 11:33:00,34.9,30.6,30.40,East,90,0.0,0.0,84,0.00,OVC,,0.27,100.0,WeatherDisplay:10.37,2013-02-22 16:33:00,
2013-02-22 11:36:00,35.0,30.7,30.40,East,90,2.4,3.5,84,0.00,OVC,,0.27,120.0,WeatherDisplay:10.37,2013-02-22 16:36:00,
2013-02-22 11:37:00,35.0,30.7,30.40,East,90,2.3,3.5,84,0.00,OVC,,0.27,120.0,WeatherDisplay:10.37,2013-02-22 16:37:00,
2013-02-22 11:38:00,35.0,30.7,30.40,East,90,2.5,3.5,84,0.00,OVC,,0.27,118.0,WeatherDisplay:10.37,2013-02-22 16:38:00,
2013-02-22 11:42:00,35.3,30.9,30.40,East,90,3.1,4.6,84,0.00,OVC,,0.27,120.0,WeatherDisplay:10.37,2013-02-22 16:42:00,
2013-02-22 11:45:00,35.3,31.0,30.40,East,90,3.0,5.0,84,0.00,OVC,OVC,0.27,107.0,WeatherDisplay:10.37,2013-02-22 16:45:00,
2013-02-22 11:47:00,35.5,31.1,30.40,East,90,3.0,5.8,84,0.00,OVC,,0.27,105.0,WeatherDisplay:10.37,2013-02-22 16:47:00,
2013-02-22 11:49:00,35.3,30.9,30.39,East,90,2.2,3.5,84,0.00,OVC,,0.27,100.0,WeatherDisplay:10.37,2013-02-22 16:49:00,
2013-02-22 11:50:00,35.3,30.9,30.39,East,90,2.1,3.5,84,0.00,OVC,,0.27,100.0,WeatherDisplay:10.37,2013-02-22 16:50:00,
2013-02-22 11:51:00,35.3,30.9,30.39,East,86,3.0,5.8,84,0.00,OVC,,0.27,105.0,WeatherDisplay:10.37,2013-02-22 16:51:00,
2013-02-22 11:53:00,35.3,30.7,30.39,ENE,74,4.9,6.0,83,0.00,OVC,,0.27,97.0,WeatherDisplay:10.37,2013-02-22 16:53:00,
2013-02-22 11:55:00,35.2,30.6,30.39,ENE,73,3.7,4.6,83,0.00,OVC,,0.27,109.0,WeatherDisplay:10.37,2013-02-22 16:55:00,
2013-02-22 11:57:00,35.3,30.7,30.39,ENE,73,2.7,5.8,83,0.00,OVC,,0.27,107.0,WeatherDisplay:10.37,2013-02-22 16:57:00,
2013-02-22 11:59:00,35.3,30.7,30.39,ENE,73,3.4,5.0,83,0.00,OVC,,0.27,104.0,WeatherDisplay:10.37,2013-02-22 16:59:00,
2013-02-22 12:01:00,35.3,30.7,30.39,ENE,73,4.7,5.0,83,0.00,OVC,,0.27,95.0,WeatherDisplay:10.37,2013-02-22 17:01:00,
2013-02-22 12:04:00,35.5,31.1,30.38,ENE,73,3.0,4.6,84,0.00,CLR,OVC,0.27,90.0,WeatherDisplay:10.37,2013-02-22 17:04:00,
2013-02-22 12:05:00,35.5,31.1,30.38,ENE,73,4.1,4.1,84,0.00,CLR,OVC,0.27,95.0,WeatherDisplay:10.37,2013-02-22 17:05:00,
2013-02-22 12:09:00,35.5,31.1,30.38,ENE,69,1.7,4.6,84,0.00,CLR,OVC,0.27,113.0,WeatherDisplay:10.37,2013-02-22 17:09:00,
2013-02-22 12:10:00,35.5,31.1,30.38,ENE,69,1.0,2.3,84,0.00,CLR,OVC,0.27,116.0,WeatherDisplay:10.37,2013-02-22 17:10:00,
2013-02-22 12:11:00,35.5,31.1,30.38,ENE,69,2.2,5.0,84,0.00,CLR,OVC,0.27,116.0,WeatherDisplay:10.37,2013-02-22 17:11:00,
2013-02-22 12:12:00,35.5,31.1,30.38,ENE,69,4.1,5.8,84,0.00,CLR,OVC,0.27,120.0,WeatherDisplay:10.37,2013-02-22 17:12:00,
2013-02-22 12:15:00,35.3,30.9,30.38,ENE,67,3.4,6.0,84,0.00,CLR,OVC,0.27,155.0,WeatherDisplay:10.37,2013-02-22 17:15:00,
2013-02-22 12:16:00,35.3,30.9,30.38,NE,54,5.7,5.8,84,0.00,CLR,OVC,0.27,158.0,WeatherDisplay:10.37,2013-02-22 17:16:00,
2013-02-22 12:17:00,35.5,31.1,30.38,NE,54,5.6,6.9,84,0.00,CLR,OVC,0.27,158.0,WeatherDisplay:10.37,2013-02-22 17:17:00,
2013-02-22 12:20:00,35.3,30.9,30.38,NE,54,3.5,4.6,84,0.00,CLR,OVC,0.27,162.0,WeatherDisplay:10.37,2013-02-22 17:20:00,
2013-02-22 12:21:00,35.3,30.9,30.38,NE,54,3.2,4.6,84,0.00,CLR,OVC,0.27,155.0,WeatherDisplay:10.37,2013-02-22 17:21:00,
2013-02-22 12:24:00,35.5,31.1,30.38,NE,45,5.3,6.9,84,0.00,CLR,OVC,0.27,109.0,WeatherDisplay:10.37,2013-02-22 17:24:00,
2013-02-22 12:25:00,35.5,31.1,30.38,NE,45,4.4,6.9,84,0.00,CLR,OVC,0.27,121.0,WeatherDisplay:10.37,2013-02-22 17:25:00,
2013-02-22 12:26:00,35.6,31.5,30.38,NE,45,4.4,4.6,85,0.00,CLR,OVC,0.27,125.0,WeatherDisplay:10.37,2013-02-22 17:26:00,
2013-02-22 12:30:00,35.6,31.2,30.38,NE,47,6.0,7.0,84,0.00,CLR,OVC,0.27,153.0,WeatherDisplay:10.37,2013-02-22 17:30:00,
2013-02-22 12:32:00,35.5,31.1,30.38,NE,45,4.8,5.8,84,0.00,CLR,OVC,0.27,176.0,WeatherDisplay:10.37,2013-02-22 17:32:00,
2013-02-22 12:35:00,35.5,31.1,30.37,NE,45,3.9,6.9,84,0.00,CLR,OVC,0.27,141.0,WeatherDisplay:10.37,2013-02-22 17:35:00,
2013-02-22 12:37:00,35.6,31.2,30.37,NE,45,5.0,5.0,84,0.00,CLR,OVC,0.27,107.0,WeatherDisplay:10.37,2013-02-22 17:37:00,
2013-02-22 12:40:00,35.6,31.2,30.37,NE,45,1.5,3.5,84,0.00,CLR,OVC,0.27,88.0,WeatherDisplay:10.37,2013-02-22 17:40:00,
2013-02-22 12:41:00,35.6,31.2,30.37,NE,45,0.6,3.5,84,0.00,CLR,OVC,0.27,84.0,WeatherDisplay:10.37,2013-02-22 17:41:00,
2013-02-22 12:42:00,35.6,31.2,30.37,NE,45,3.1,6.0,84,0.00,CLR,OVC,0.27,84.0,WeatherDisplay:10.37,2013-02-22 17:42:00,
2013-02-22 12:45:00,35.8,31.4,30.37,NE,45,3.0,7.0,84,0.00,CLR,OVC,0.27,98.0,WeatherDisplay:10.37,2013-02-22 17:45:00,
2013-02-22 12:46:00,35.6,31.2,30.37,NE,45,1.8,4.6,84,0.00,CLR,OVC,0.27,109.0,WeatherDisplay:10.37,2013-02-22 17:46:00,
2013-02-22 12:48:00,35.6,31.2,30.37,NE,45,3.5,5.0,84,0.00,CLR,OVC,0.27,123.0,WeatherDisplay:10.37,2013-02-22 17:48:00,
2013-02-22 12:49:00,35.6,30.9,30.37,NE,45,4.9,4.9,83,0.00,CLR,OVC,0.27,125.0,WeatherDisplay:10.37,2013-02-22 17:49:00,
2013-02-22 12:52:00,35.6,31.2,30.37,NE,45,2.7,3.5,84,0.00,CLR,OVC,0.27,107.0,WeatherDisplay:10.37,2013-02-22 17:52:00,
2013-02-22 12:55:00,35.6,30.9,30.37,NE,45,2.7,4.0,83,0.00,FEW,OVC,0.27,109.0,WeatherDisplay:10.37,2013-02-22 17:55:00,
2013-02-22 12:56:00,35.6,31.2,30.37,NE,45,3.5,4.0,84,0.00,FEW,OVC,0.27,118.0,WeatherDisplay:10.37,2013-02-22 17:56:00,
2013-02-22 12:58:00,35.8,31.4,30.37,NE,45,3.2,5.0,84,0.00,CLR,OVC,0.27,146.0,WeatherDisplay:10.37,2013-02-22 17:58:00,
2013-02-22 13:01:00,35.8,31.4,30.37,NE,45,3.2,4.6,84,0.00,CLR,OVC,0.27,144.0,WeatherDisplay:10.37,2013-02-22 18:01:00,
2013-02-22 13:03:00,35.9,31.5,30.35,NE,45,0.9,5.0,84,0.00,CLR,OVC,0.27,151.0,WeatherDisplay:10.37,2013-02-22 18:03:00,
2013-02-22 13:04:00,35.9,31.5,30.35,NE,45,2.6,4.6,84,0.00,CLR,OVC,0.27,151.0,WeatherDisplay:10.37,2013-02-22 18:04:00,
2013-02-22 13:06:00,36.0,31.6,30.35,NE,45,4.6,5.0,84,0.00,CLR,OVC,0.27,160.0,WeatherDisplay:10.37,2013-02-22 18:06:00,
2013-02-22 13:10:00,36.0,31.6,30.35,NE,45,3.0,5.0,84,0.00,SCT,OVC,0.27,123.0,WeatherDisplay:10.37,2013-02-22 18:10:00,
2013-02-22 13:11:00,36.0,31.6,30.35,NE,46,4.9,6.0,84,0.00,SCT,OVC,0.27,120.0,WeatherDisplay:10.37,2013-02-22 18:11:00,
2013-02-22 13:13:00,36.0,31.6,30.35,NE,46,3.9,4.6,84,0.00,SCT,OVC,0.27,130.0,WeatherDisplay:10.37,2013-02-22 18:13:00,
2013-02-22 13:14:00,36.0,31.3,30.35,NE,46,2.5,3.5,83,0.00,FEW,OVC,0.27,148.0,WeatherDisplay:10.37,2013-02-22 18:14:00,
2013-02-22 13:15:00,36.0,31.3,30.35,NE,46,2.3,4.0,83,0.00,FEW,OVC,0.27,148.0,WeatherDisplay:10.37,2013-02-22 18:15:00,
2013-02-22 13:18:00,36.2,31.8,30.34,NE,51,6.9,10.4,84,0.00,FEW,OVC,0.27,167.0,WeatherDisplay:10.37,2013-02-22 18:18:00,
2013-02-22 13:21:00,36.0,31.3,30.34,NE,51,8.3,10.4,83,0.00,CLR,OVC,0.27,213.0,WeatherDisplay:10.37,2013-02-22 18:21:00,
2013-02-22 13:22:00,36.0,31.3,30.34,NE,51,5.7,10.4,83,0.00,CLR,OVC,0.27,155.0,WeatherDisplay:10.37,2013-02-22 18:22:00,
2013-02-22 13:23:00,36.0,31.3,30.34,NE,51,5.0,7.0,83,0.00,FEW,OVC,0.27,127.0,WeatherDisplay:10.37,2013-02-22 18:23:00,
2013-02-22 13:24:00,36.0,31.6,30.34,NE,51,5.8,6.9,84,0.00,SCT,OVC,0.27,123.0,WeatherDisplay:10.37,2013-02-22 18:24:00,
2013-02-22 13:26:00,36.0,31.3,30.34,NE,52,5.2,6.9,83,0.00,SCT,OVC,0.27,155.0,WeatherDisplay:10.37,2013-02-22 18:26:00,
2013-02-22 13:29:00,36.0,31.6,30.34,NE,53,4.7,6.9,84,0.00,SCT,OVC,0.27,137.0,WeatherDisplay:10.37,2013-02-22 18:29:00,
2013-02-22 13:30:00,36.1,31.8,30.34,NE,52,5.0,10.0,84,0.00,SCT,OVC,0.27,137.0,WeatherDisplay:10.37,2013-02-22 18:30:00,
2013-02-22 13:33:00,36.0,31.6,30.34,NE,55,6.3,6.9,84,0.00,BKN,OVC,0.27,114.0,WeatherDisplay:10.37,2013-02-22 18:33:00,
2013-02-22 13:34:00,36.0,31.6,30.32,NE,55,5.4,9.2,84,0.00,BKN,OVC,0.27,111.0,WeatherDisplay:10.37,2013-02-22 18:34:00,
2013-02-22 13:36:00,36.0,31.3,30.32,NE,55,4.4,6.9,83,0.00,BKN,OVC,0.27,128.0,WeatherDisplay:10.37,2013-02-22 18:36:00,
2013-02-22 13:38:00,36.0,31.3,30.32,NE,55,3.2,5.0,83,0.00,BKN,OVC,0.27,128.0,WeatherDisplay:10.37,2013-02-22 18:38:00,
2013-02-22 13:39:00,36.0,31.6,30.32,NE,55,4.6,5.8,84,0.00,BKN,OVC,0.27,128.0,WeatherDisplay:10.37,2013-02-22 18:39:00,
2013-02-22 13:40:00,36.0,32.8,30.32,NE,55,4.7,6.0,88,0.00,SCT,OVC,0.27,135.0,WeatherDisplay:10.37,2013-02-22 18:40:00,
2013-02-22 13:43:00,36.2,31.8,30.32,NE,49,4.5,5.8,84,0.00,SCT,OVC,0.27,141.0,WeatherDisplay:10.37,2013-02-22 18:43:00,
2013-02-22 13:45:00,36.2,31.8,30.32,NE,53,5.0,9.0,84,0.00,BKN,OVC,0.27,123.0,WeatherDisplay:10.37,2013-02-22 18:45:00,
2013-02-22 13:49:00,36.5,31.8,30.33,NE,49,4.3,5.8,83,0.00,BKN,OVC,0.27,120.0,WeatherDisplay:10.37,2013-02-22 18:49:00,
2013-02-22 13:51:00,36.5,31.8,30.33,NE,43,5.1,9.2,83,0.00,BKN,OVC,0.27,79.0,WeatherDisplay:10.37,2013-02-22 18:51:00,
2013-02-22 13:54:00,36.3,31.3,30.33,NE,43,5.0,5.8,82,0.00,BKN,OVC,0.27,65.0,WeatherDisplay:10.37,2013-02-22 18:54:00,
2013-02-22 13:56:00,36.3,31.6,30.33,NE,43,3.9,5.8,83,0.00,BKN,OVC,0.27,84.0,WeatherDisplay:10.37,2013-02-22 18:56:00,
2013-02-22 13:59:00,36.3,31.3,30.33,NE,44,5.6,9.2,82,0.00,BKN,OVC,0.27,65.0,WeatherDisplay:10.37,2013-02-22 18:59:00,
2013-02-22 14:00:00,36.5,31.5,30.33,NE,45,3.9,9.2,82,0.00,BKN,OVC,0.27,62.0,WeatherDisplay:10.37,2013-02-22 19:00:00,
2013-02-22 14:03:00,36.5,31.5,30.33,NE,42,3.3,4.6,82,0.00,BKN,OVC,0.27,77.0,WeatherDisplay:10.37,2013-02-22 19:03:00,
2013-02-22 14:05:00,36.5,31.5,30.33,NE,42,0.1,3.5,82,0.00,BKN,OVC,0.27,86.0,WeatherDisplay:10.37,2013-02-22 19:05:00,
2013-02-22 14:08:00,36.6,31.9,30.33,NE,39,5.1,6.0,83,0.00,BKN,OVC,0.27,69.0,WeatherDisplay:10.37,2013-02-22 19:08:00,
2013-02-22 14:11:00,36.6,31.9,30.33,NE,38,4.3,5.8,83,0.00,BKN,OVC,0.27,54.0,WeatherDisplay:10.37,2013-02-22 19:11:00,
2013-02-22 14:13:00,36.6,32.2,30.33,NE,38,4.4,5.8,84,0.00,BKN,OVC,0.27,49.0,WeatherDisplay:10.37,2013-02-22 19:13:00,
2013-02-22 14:14:00,36.6,32.2,30.33,NE,38,3.6,5.0,84,0.00,BKN,OVC,0.27,49.0,WeatherDisplay:10.37,2013-02-22 19:14:00,
2013-02-22 14:15:00,36.6,32.2,30.33,NE,38,5.0,8.0,84,0.00,BKN,OVC,0.27,47.0,WeatherDisplay:10.37,2013-02-22 19:15:00,
2013-02-22 14:18:00,36.3,31.9,30.33,NE,37,5.6,7.0,84,0.00,BKN,OVC,0.27,65.0,WeatherDisplay:10.37,2013-02-22 19:18:00,
2013-02-22 14:19:00,36.3,31.9,30.33,NE,37,6.4,9.2,84,0.00,BKN,OVC,0.27,65.0,WeatherDisplay:10.37,2013-02-22 19:19:00,
2013-02-22 14:20:00,36.2,32.1,30.33,NE,37,4.3,6.9,85,0.00,BKN,OVC,0.27,51.0,WeatherDisplay:10.37,2013-02-22 19:20:00,
2013-02-22 14:23:00,36.2,32.4,30.33,NNE,30,6.5,10.4,86,0.00,BKN,OVC,0.27,56.0,WeatherDisplay:10.37,2013-02-22 19:23:00,
2013-02-22 14:24:00,36.2,32.4,30.33,NNE,30,6.8,9.2,86,0.00,BKN,OVC,0.27,62.0,WeatherDisplay:10.37,2013-02-22 19:24:00,
2013-02-22 14:27:00,36.0,32.5,30.33,NNE,30,4.1,5.0,87,0.00,BKN,OVC,0.27,62.0,WeatherDisplay:10.37,2013-02-22 19:27:00,
2013-02-22 14:29:00,35.9,32.4,30.33,NNE,30,4.6,5.0,87,0.01,RA,OVC,0.28,93.0,WeatherDisplay:10.37,2013-02-22 19:29:00,
2013-02-22 14:30:00,35.9,32.4,30.33,NNE,30,4.8,6.0,87,0.01,RA,OVC,0.28,91.0,WeatherDisplay:10.37,2013-02-22 19:30:00,
2013-02-22 14:32:00,35.8,32.3,30.33,NNE,32,4.5,6.0,87,0.01,RA,OVC,0.28,90.0,WeatherDisplay:10.37,2013-02-22 19:32:00,
2013-02-22 14:34:00,35.8,32.6,30.33,NNE,32,4.0,6.0,88,0.01,RA,OVC,0.28,67.0,WeatherDisplay:10.37,2013-02-22 19:34:00,
2013-02-22 14:37:00,35.8,32.6,30.33,NNE,32,5.2,5.8,88,0.01,RA,OVC,0.28,46.0,WeatherDisplay:10.37,2013-02-22 19:37:00,
2013-02-22 14:40:00,35.8,32.6,30.33,NNE,32,4.2,4.6,88,0.01,BKN,OVC,0.28,58.0,WeatherDisplay:10.37,2013-02-22 19:40:00,
2013-02-22 14:41:00,35.8,32.9,30.33,NNE,32,4.9,5.8,89,0.01,BKN,OVC,0.28,65.0,WeatherDisplay:10.37,2013-02-22 19:41:00,
2013-02-22 14:42:00,35.8,32.9,30.33,NNE,32,3.2,5.8,89,0.01,BKN,OVC,0.28,58.0,WeatherDisplay:10.37,2013-02-22 19:42:00,
2013-02-22 14:44:00,35.8,32.9,30.33,NNE,32,1.9,3.5,89,0.01,BKN,OVC,0.28,46.0,WeatherDisplay:10.37,2013-02-22 19:44:00,
2013-02-22 14:46:00,35.8,33.2,30.33,NNE,32,2.3,3.5,90,0.01,BKN,OVC,0.28,35.0,WeatherDisplay:10.37,2013-02-22 19:46:00,
2013-02-22 14:47:00,35.8,33.2,30.33,NNE,32,2.3,3.5,90,0.01,BKN,OVC,0.28,35.0,WeatherDisplay:10.37,2013-02-22 19:47:00,
2013-02-22 14:49:00,35.8,33.2,30.33,NNE,32,3.2,3.5,90,0.01,BKN,OVC,0.28,42.0,WeatherDisplay:10.37,2013-02-22 19:49:00,
2013-02-22 14:51:00,35.8,33.2,30.33,NNE,32,5.1,7.0,90,0.01,BKN,OVC,0.28,44.0,WeatherDisplay:10.37,2013-02-22 19:51:00,
2013-02-22 14:53:00,35.6,33.0,30.33,NNE,31,3.7,5.8,90,0.01,BKN,OVC,0.28,53.0,WeatherDisplay:10.37,2013-02-22 19:53:00,
2013-02-22 14:55:00,35.6,33.2,30.33,NNE,32,2.3,3.5,91,0.02,RA,OVC,0.29,56.0,WeatherDisplay:10.37,2013-02-22 19:55:00,
2013-02-22 14:58:00,35.6,33.2,30.33,NNE,32,2.1,3.5,91,0.02,RA,OVC,0.29,56.0,WeatherDisplay:10.37,2013-02-22 19:58:00,
2013-02-22 14:59:00,35.6,33.2,30.33,NNE,32,1.9,3.5,91,0.02,RA,OVC,0.29,47.0,WeatherDisplay:10.37,2013-02-22 19:59:00,
2013-02-22 15:00:00,35.6,33.2,30.33,NNE,32,2.7,3.5,91,0.02,RA,OVC,0.29,47.0,WeatherDisplay:10.37,2013-02-22 20:00:00,
2013-02-22 15:01:00,35.6,33.2,30.33,NNE,32,2.3,3.5,91,0.02,RA,OVC,0.29,44.0,WeatherDisplay:10.37,2013-02-22 20:01:00,
2013-02-22 15:06:00,35.3,32.9,30.33,NNE,31,3.2,4.6,91,0.02,BKN,OVC,0.29,37.0,WeatherDisplay:10.37,2013-02-22 20:06:00,
2013-02-22 15:08:00,35.3,33.2,30.33,NNE,31,1.7,3.5,92,0.02,BKN,OVC,0.29,39.0,WeatherDisplay:10.37,2013-02-22 20:08:00,
2013-02-22 15:10:00,35.3,33.2,30.33,NNE,31,2.3,3.5,92,0.02,BKN,OVC,0.29,33.0,WeatherDisplay:10.37,2013-02-22 20:10:00,
2013-02-22 15:11:00,35.5,33.4,30.33,NNE,31,2.4,5.0,92,0.02,BKN,OVC,0.29,37.0,WeatherDisplay:10.37,2013-02-22 20:11:00,
2013-02-22 15:13:00,35.3,33.2,30.33,NNE,31,4.7,5.8,92,0.02,BKN,OVC,0.29,47.0,WeatherDisplay:10.37,2013-02-22 20:13:00,
2013-02-22 15:15:00,35.3,33.2,30.33,NNE,31,3.0,6.0,92,0.00,RA,OVC,0.30,47.0,WeatherDisplay:10.37,2013-02-22 20:15:00,
2013-02-22 15:18:00,35.3,33.2,30.33,NNE,30,5.5,6.9,92,0.03,RA,OVC,0.30,49.0,WeatherDisplay:10.37,2013-02-22 20:18:00,
2013-02-22 15:19:00,35.3,33.2,30.33,NNE,30,3.8,6.9,92,0.03,RA,OVC,0.30,42.0,WeatherDisplay:10.37,2013-02-22 20:19:00,
2013-02-22 15:20:00,35.3,33.2,30.33,NNE,30,2.9,3.5,92,0.03,RA,OVC,0.30,42.0,WeatherDisplay:10.37,2013-02-22 20:20:00,
2013-02-22 15:21:00,35.3,33.2,30.33,NNE,30,4.5,5.8,92,0.03,RA,OVC,0.30,42.0,WeatherDisplay:10.37,2013-02-22 20:21:00,
2013-02-22 15:24:00,35.3,33.2,30.33,NNE,30,3.6,5.8,92,0.03,BKN,OVC,0.30,42.0,WeatherDisplay:10.37,2013-02-22 20:24:00,
2013-02-22 15:26:00,35.3,33.5,30.33,NNE,30,3.0,4.6,93,0.03,BKN,OVC,0.30,35.0,WeatherDisplay:10.37,2013-02-22 20:26:00,
2013-02-22 15:28:00,35.3,33.5,30.33,NNE,30,4.2,4.6,93,0.03,BKN,OVC,0.30,47.0,WeatherDisplay:10.37,2013-02-22 20:28:00,
2013-02-22 15:30:00,35.5,33.7,30.33,NNE,30,2.8,4.6,93,0.02,BKN,OVC,0.30,65.0,WeatherDisplay:10.37,2013-02-22 20:30:00,
2013-02-22 15:31:00,35.5,33.7,30.33,NNE,30,3.4,3.5,93,0.02,BKN,OVC,0.30,63.0,WeatherDisplay:10.37,2013-02-22 20:31:00,
2013-02-22 15:33:00,35.5,33.7,30.32,NNE,30,4.7,5.8,93,0.02,BKN,OVC,0.30,49.0,WeatherDisplay:10.37,2013-02-22 20:33:00,
2013-02-22 15:35:00,35.3,33.5,30.32,NNE,30,5.5,7.0,93,0.02,BKN,OVC,0.30,54.0,WeatherDisplay:10.37,2013-02-22 20:35:00,
2013-02-22 15:36:00,35.3,33.5,30.32,NNE,30,4.5,6.9,93,0.02,BKN,OVC,0.30,46.0,WeatherDisplay:10.37,2013-02-22 20:36:00,
2013-02-22 15:37:00,35.3,33.5,30.32,NNE,30,5.2,6.9,93,0.02,BKN,OVC,0.30,42.0,WeatherDisplay:10.37,2013-02-22 20:37:00,
2013-02-22 15:39:00,35.3,33.5,30.32,NNE,30,4.4,6.0,93,0.02,OVC,,0.30,32.0,WeatherDisplay:10.37,2013-02-22 20:39:00,
2013-02-22 15:42:00,35.5,33.9,30.32,NNE,30,3.6,3.6,94,0.02,OVC,,0.30,23.0,WeatherDisplay:10.37,2013-02-22 20:42:00,
2013-02-22 15:44:00,35.5,33.7,30.32,NNE,30,2.5,3.5,93,0.02,OVC,,0.30,26.0,WeatherDisplay:10.37,2013-02-22 20:44:00,
2013-02-22 15:45:00,35.5,33.7,30.32,NNE,30,3.6,6.0,93,0.02,OVC,,0.30,26.0,WeatherDisplay:10.37,2013-02-22 20:45:00,
2013-02-22 15:47:00,35.3,33.5,30.32,NNE,30,1.1,4.6,93,0.02,OVC,,0.30,18.0,WeatherDisplay:10.37,2013-02-22 20:47:00,
2013-02-22 15:48:00,35.3,33.5,30.34,NNE,30,1.1,2.3,93,0.02,OVC,,0.30,18.0,WeatherDisplay:10.37,2013-02-22 20:48:00,
2013-02-22 15:50:00,35.3,33.7,30.34,NNE,30,3.3,3.5,94,0.02,OVC,,0.30,25.0,WeatherDisplay:10.37,2013-02-22 20:50:00,
2013-02-22 15:53:00,35.2,33.4,30.34,NNE,30,4.9,6.9,93,0.02,OVC,,0.30,33.0,WeatherDisplay:10.37,2013-02-22 20:53:00,
2013-02-22 15:54:00,35.2,33.4,30.34,NNE,30,4.1,5.8,93,0.01,BKN,OVC,0.30,37.0,WeatherDisplay:10.37,2013-02-22 20:54:00,
2013-02-22 15:56:00,35.2,33.6,30.34,NNE,30,3.5,4.6,94,0.01,OVC,,0.30,32.0,WeatherDisplay:10.37,2013-02-22 20:56:00,
2013-02-22 15:58:00,35.2,33.6,30.34,NNE,30,4.8,5.8,94,0.01,BKN,OVC,0.30,37.0,WeatherDisplay:10.37,2013-02-22 20:58:00,
2013-02-22 16:00:00,35.0,33.4,30.34,NNE,30,6.0,7.0,94,0.00,BKN,OVC,0.30,39.0,WeatherDisplay:10.37,2013-02-22 21:00:00,
2013-02-22 16:02:00,35.0,33.4,30.34,NNE,30,5.8,6.9,94,0.01,BKN,OVC,0.30,37.0,WeatherDisplay:10.37,2013-02-22 21:02:00,
2013-02-22 16:05:00,35.0,33.4,30.33,NNE,30,2.3,3.5,94,0.02,RA,OVC,0.31,25.0,WeatherDisplay:10.37,2013-02-22 21:05:00,
2013-02-22 16:08:00,35.0,33.4,30.33,NNE,30,1.9,3.5,94,0.02,RA,OVC,0.31,30.0,WeatherDisplay:10.37,2013-02-22 21:08:00,
2013-02-22 16:09:00,35.0,33.4,30.33,NNE,30,1.7,3.5,94,0.02,RA,OVC,0.31,33.0,WeatherDisplay:10.37,2013-02-22 21:09:00,
2013-02-22 16:12:00,35.0,33.4,30.33,NNE,30,0.0,0.0,94,0.02,RA,OVC,0.31,37.0,WeatherDisplay:10.37,2013-02-22 21:12:00,
2013-02-22 16:14:00,35.2,33.6,30.33,NNE,30,3.3,4.0,94,0.01,RA,OVC,0.31,37.0,WeatherDisplay:10.37,2013-02-22 21:14:00,
2013-02-22 16:15:00,35.0,33.4,30.33,NNE,30,4.1,5.0,94,0.01,RA,OVC,0.31,35.0,WeatherDisplay:10.37,2013-02-22 21:15:00,
2013-02-22 16:17:00,35.0,33.4,30.33,NNE,30,2.3,3.5,94,0.01,OVC,,0.31,26.0,WeatherDisplay:10.37,2013-02-22 21:17:00,
2013-02-22 16:18:00,35.0,33.4,30.33,NNE,30,2.2,3.5,94,0.01,OVC,,0.31,26.0,WeatherDisplay:10.37,2013-02-22 21:18:00,
2013-02-22 16:20:00,35.2,33.6,30.32,NNE,30,2.4,3.5,94,0.01,OVC,,0.31,28.0,WeatherDisplay:10.37,2013-02-22 21:20:00,
2013-02-22 16:23:00,35.0,33.4,30.32,NE,36,5.3,6.0,94,0.01,BKN,OVC,0.31,44.0,WeatherDisplay:10.37,2013-02-22 21:23:00,
2013-02-22 16:24:00,35.0,33.4,30.32,NE,36,5.1,6.0,94,0.01,BKN,OVC,0.31,44.0,WeatherDisplay:10.37,2013-02-22 21:24:00,
2013-02-22 16:25:00,34.9,33.3,30.32,NE,36,5.3,6.0,94,0.01,BKN,OVC,0.31,37.0,WeatherDisplay:10.37,2013-02-22 21:25:00,
2013-02-22 16:26:00,34.9,33.3,30.32,NE,36,5.0,5.8,94,0.01,OVC,,0.31,32.0,WeatherDisplay:10.37,2013-02-22 21:26:00,
2013-02-22 16:29:00,35.0,33.4,30.32,NE,36,1.7,3.0,94,0.01,OVC,,0.31,25.0,WeatherDisplay:10.37,2013-02-22 21:29:00,
2013-02-22 16:30:00,35.0,33.7,30.32,NE,36,2.0,9.0,95,0.00,OVC,OVC,0.31,19.0,WeatherDisplay:10.37,2013-02-22 21:30:00,
2013-02-22 16:33:00,35.0,33.7,30.33,NE,36,2.7,3.5,95,0.01,OVC,,0.31,23.0,WeatherDisplay:10.37,2013-02-22 21:33:00,
2013-02-22 16:35:00,34.9,33.6,30.33,NE,36,4.0,4.6,95,0.01,OVC,,0.31,21.0,WeatherDisplay:10.37,2013-02-22 21:35:00,
2013-02-22 16:37:00,35.0,33.7,30.33,NE,36,2.6,3.5,95,0.01,OVC,,0.31,18.0,WeatherDisplay:10.37,2013-02-22 21:37:00,
2013-02-22 16:39:00,35.0,33.7,30.33,NE,36,1.9,3.5,95,0.01,OVC,,0.31,18.0,WeatherDisplay:10.37,2013-02-22 21:39:00,
2013-02-22 16:40:00,35.0,33.7,30.33,NE,36,2.6,5.0,95,0.01,OVC,,0.31,18.0,WeatherDisplay:10.37,2013-02-22 21:40:00,
2013-02-22 16:43:00,35.0,33.7,30.33,NE,36,2.3,5.0,95,0.01,OVC,,0.31,16.0,WeatherDisplay:10.37,2013-02-22 21:43:00,
2013-02-22 16:44:00,35.0,33.7,30.33,NE,36,3.4,4.6,95,0.01,OVC,,0.31,16.0,WeatherDisplay:10.37,2013-02-22 21:44:00,
2013-02-22 16:45:00,35.0,33.7,30.33,NE,36,2.9,4.6,95,0.01,OVC,,0.31,14.0,WeatherDisplay:10.37,2013-02-22 21:45:00,
2013-02-22 16:49:00,34.9,33.6,30.33,NNE,27,5.7,6.9,95,0.01,OVC,,0.31,11.0,WeatherDisplay:10.37,2013-02-22 21:49:00,
2013-02-22 16:50:00,34.9,33.6,30.33,NNE,27,3.7,6.9,95,0.01,OVC,,0.31,11.0,WeatherDisplay:10.37,2013-02-22 21:50:00,
2013-02-22 16:54:00,35.0,33.7,30.33,NNE,27,3.7,5.8,95,0.02,RA,OVC,0.32,12.0,WeatherDisplay:10.37,2013-02-22 21:54:00,
2013-02-22 16:55:00,35.0,33.7,30.33,NNE,27,4.0,5.8,95,0.02,RA,OVC,0.32,12.0,WeatherDisplay:10.37,2013-02-22 21:55:00,
2013-02-22 16:56:00,35.0,33.7,30.33,NNE,27,2.8,3.5,95,0.02,RA,OVC,0.32,11.0,WeatherDisplay:10.37,2013-02-22 21:56:00,
2013-02-22 16:58:00,35.0,33.7,30.33,NNE,27,2.1,3.5,95,0.02,RA,OVC,0.32,11.0,WeatherDisplay:10.37,2013-02-22 21:58:00,
2013-02-22 17:03:00,34.9,33.6,30.33,NNE,27,3.6,4.0,95,0.02,OVC,,0.32,9.0,WeatherDisplay:10.37,2013-02-22 22:03:00,
2013-02-22 17:04:00,34.9,33.6,30.33,NNE,27,4.5,5.8,95,0.02,OVC,,0.32,11.0,WeatherDisplay:10.37,2013-02-22 22:04:00,
2013-02-22 17:09:00,34.9,33.6,30.33,NNE,27,3.6,5.0,95,0.01,OVC,,0.32,12.0,WeatherDisplay:10.37,2013-02-22 22:09:00,
2013-02-22 17:10:00,34.9,33.6,30.33,NNE,27,4.2,4.2,95,0.01,OVC,,0.32,12.0,WeatherDisplay:10.37,2013-02-22 22:10:00,
2013-02-22 17:11:00,34.9,33.6,30.33,NNE,27,2.3,3.5,95,0.01,OVC,,0.32,7.0,WeatherDisplay:10.37,2013-02-22 22:11:00,
2013-02-22 17:14:00,34.9,33.6,30.33,NNE,27,2.0,5.0,95,0.01,OVC,,0.32,7.0,WeatherDisplay:10.37,2013-02-22 22:14:00,
2013-02-22 17:16:00,34.9,33.9,30.33,NNE,27,2.6,4.6,96,0.01,OVC,,0.32,7.0,WeatherDisplay:10.37,2013-02-22 22:16:00,
2013-02-22 17:17:00,34.9,33.9,30.33,NNE,27,2.8,4.6,96,0.01,OVC,,0.32,7.0,WeatherDisplay:10.37,2013-02-22 22:17:00,
2013-02-22 17:19:00,34.9,33.9,30.33,NNE,27,4.4,4.6,96,0.01,OVC,,0.32,11.0,WeatherDisplay:10.37,2013-02-22 22:19:00,
2013-02-22 17:21:00,34.9,33.9,30.33,NNE,27,3.6,4.0,96,0.01,OVC,,0.32,11.0,WeatherDisplay:10.37,2013-02-22 22:21:00,
2013-02-22 17:22:00,34.9,33.9,30.33,NNE,27,3.9,5.0,96,0.01,OVC,,0.32,14.0,WeatherDisplay:10.37,2013-02-22 22:22:00,
2013-02-22 17:23:00,34.9,33.9,30.33,NNE,28,5.1,6.0,96,0.01,OVC,,0.32,16.0,WeatherDisplay:10.37,2013-02-22 22:23:00,
2013-02-22 17:25:00,34.9,33.9,30.33,NE,34,5.8,6.9,96,0.01,OVC,,0.32,14.0,WeatherDisplay:10.37,2013-02-22 22:25:00,
2013-02-22 17:26:00,34.9,33.9,30.33,NE,34,4.1,6.9,96,0.01,OVC,,0.32,14.0,WeatherDisplay:10.37,2013-02-22 22:26:00,
2013-02-22 17:27:00,34.9,33.9,30.33,NE,34,4.6,5.0,96,0.01,OVC,,0.32,12.0,WeatherDisplay:10.37,2013-02-22 22:27:00,
2013-02-22 17:30:00,34.9,33.9,30.33,NNE,33,5.0,7.0,96,0.00,OVC,OVC,0.32,9.0,WeatherDisplay:10.37,2013-02-22 22:30:00,
2013-02-22 17:33:00,34.9,33.9,30.30,NE,38,5.0,5.8,96,0.01,OVC,,0.32,9.0,WeatherDisplay:10.37,2013-02-22 22:33:00,
2013-02-22 17:34:00,34.9,33.9,30.30,NE,40,5.5,8.1,96,0.01,OVC,,0.32,9.0,WeatherDisplay:10.37,2013-02-22 22:34:00,
2013-02-22 17:35:00,34.9,33.9,30.30,NE,40,5.3,8.1,96,0.01,OVC,,0.32,9.0,WeatherDisplay:10.37,2013-02-22 22:35:00,
2013-02-22 17:36:00,34.9,33.9,30.30,NE,40,5.5,6.9,96,0.01,OVC,,0.32,9.0,WeatherDisplay:10.37,2013-02-22 22:36:00,
2013-02-22 17:39:00,34.9,33.9,30.30,NE,40,4.1,4.1,96,0.01,OVC,,0.32,5.0,WeatherDisplay:10.37,2013-02-22 22:39:00,
2013-02-22 17:41:00,34.9,33.9,30.30,NE,40,2.4,3.5,96,0.01,OVC,,0.32,0.0,WeatherDisplay:10.37,2013-02-22 22:41:00,
2013-02-22 17:43:00,34.9,33.9,30.30,NE,40,2.6,4.0,96,0.01,OVC,,0.32,0.0,WeatherDisplay:10.37,2013-02-22 22:43:00,
2013-02-22 17:46:00,34.9,33.9,30.30,NE,40,3.4,4.0,96,0.02,RA,OVC,0.33,0.0,WeatherDisplay:10.37,2013-02-22 22:46:00,
2013-02-22 17:48:00,34.9,33.9,30.30,NE,40,3.6,4.0,96,0.02,RA,OVC,0.33,0.0,WeatherDisplay:10.37,2013-02-22 22:48:00,
2013-02-22 17:49:00,34.9,33.9,30.30,NE,40,3.9,4.6,96,0.02,RA,OVC,0.33,0.0,WeatherDisplay:10.37,2013-02-22 22:49:00,
2013-02-22 17:53:00,34.9,33.9,30.30,NE,40,5.1,6.9,96,0.01,RA,OVC,0.33,0.0,WeatherDisplay:10.37,2013-02-22 22:53:00,
2013-02-22 17:54:00,34.9,33.9,30.30,NE,40,4.0,5.0,96,0.01,OVC,,0.33,0.0,WeatherDisplay:10.37,2013-02-22 22:54:00,
2013-02-22 17:56:00,34.9,33.9,30.30,NE,40,3.6,5.8,96,0.01,OVC,,0.33,0.0,WeatherDisplay:10.37,2013-02-22 22:56:00,
2013-02-22 17:58:00,34.9,33.9,30.30,NE,40,4.3,5.0,96,0.01,OVC,,0.33,0.0,WeatherDisplay:10.37,2013-02-22 22:58:00,
2013-02-22 18:00:00,34.8,33.8,30.30,NE,40,5.0,7.0,96,0.00,OVC,OVC,0.33,0.0,WeatherDisplay:10.37,2013-02-22 23:00:00,
2013-02-22 18:01:00,34.7,33.7,30.30,NE,40,3.1,4.6,96,0.01,OVC,,0.33,0.0,WeatherDisplay:10.37,2013-02-22 23:01:00,
2013-02-22 18:04:00,34.7,33.7,30.31,NE,40,3.9,5.0,96,0.01,OVC,,0.33,0.0,WeatherDisplay:10.37,2013-02-22 23:04:00,
2013-02-22 18:05:00,34.7,33.7,30.31,NE,40,4.0,5.0,96,0.01,OVC,,0.33,0.0,WeatherDisplay:10.37,2013-02-22 23:05:00,
2013-02-22 18:06:00,34.7,33.7,30.31,NE,40,3.8,4.6,96,0.01,OVC,,0.33,0.0,WeatherDisplay:10.37,2013-02-22 23:06:00,
2013-02-22 18:10:00,34.7,33.7,30.31,NE,46,6.2,10.4,96,0.01,OVC,,0.33,0.0,WeatherDisplay:10.37,2013-02-22 23:10:00,
2013-02-22 18:11:00,34.6,33.6,30.31,NE,48,6.0,9.0,96,0.01,OVC,,0.33,0.0,WeatherDisplay:10.37,2013-02-22 23:11:00,
2013-02-22 18:12:00,34.6,33.6,30.31,NE,48,6.2,9.2,96,0.01,OVC,,0.33,0.0,WeatherDisplay:10.37,2013-02-22 23:12:00,
2013-02-22 18:14:00,34.6,33.6,30.31,NE,49,5.2,10.4,96,0.01,OVC,,0.33,0.0,WeatherDisplay:10.37,2013-02-22 23:14:00,
2013-02-22 18:15:00,34.6,33.6,30.31,NE,50,6.3,9.2,96,0.01,OVC,,0.33,0.0,WeatherDisplay:10.37,2013-02-22 23:15:00,
2013-02-22 18:16:00,34.4,33.4,30.31,NE,51,5.2,9.2,96,0.01,OVC,,0.33,0.0,WeatherDisplay:10.37,2013-02-22 23:16:00,
2013-02-22 18:19:00,34.4,33.4,30.30,NE,51,4.5,4.6,96,0.01,OVC,,0.33,0.0,WeatherDisplay:10.37,2013-02-22 23:19:00,
2013-02-22 18:20:00,34.4,33.4,30.30,NE,51,4.2,6.9,96,0.01,OVC,,0.33,0.0,WeatherDisplay:10.37,2013-02-22 23:20:00,
2013-02-22 18:21:00,34.6,33.6,30.30,NE,51,4.4,5.8,96,0.01,OVC,,0.33,0.0,WeatherDisplay:10.37,2013-02-22 23:21:00,
2013-02-22 18:22:00,34.4,33.4,30.30,ENE,57,9.0,10.4,96,0.01,OVC,,0.33,0.0,WeatherDisplay:10.37,2013-02-22 23:22:00,
2013-02-22 18:26:00,34.3,33.3,30.30,ENE,60,6.2,9.2,96,0.01,OVC,,0.33,0.0,WeatherDisplay:10.37,2013-02-22 23:26:00,
2013-02-22 18:28:00,34.3,33.3,30.30,ENE,60,4.5,9.2,96,0.01,OVC,,0.33,0.0,WeatherDisplay:10.37,2013-02-22 23:28:00,
2013-02-22 18:30:00,34.3,33.3,30.30,ENE,57,5.0,10.0,96,0.00,OVC,OVC,0.33,0.0,WeatherDisplay:10.37,2013-02-22 23:30:00,
2013-02-22 18:33:00,34.3,33.3,30.31,NE,46,2.8,3.5,96,0.01,OVC,,0.33,0.0,WeatherDisplay:10.37,2013-02-22 23:33:00,
2013-02-22 18:34:00,34.3,33.3,30.31,NE,46,2.8,4.0,96,0.01,OVC,,0.33,0.0,WeatherDisplay:10.37,2013-02-22 23:34:00,
2013-02-22 18:35:00,34.3,33.3,30.31,NE,46,3.2,5.0,96,0.01,OVC,,0.33,0.0,WeatherDisplay:10.37,2013-02-22 23:35:00,
2013-02-22 18:39:00,34.3,33.3,30.31,NE,46,4.6,5.8,96,0.01,OVC,,0.33,0.0,WeatherDisplay:10.37,2013-02-22 23:39:00,
2013-02-22 18:40:00,34.3,33.3,30.31,NE,46,4.4,6.0,96,0.01,,OVC,0.33,0.0,WeatherDisplay:10.37,2013-02-22 23:40:00,
2013-02-22 18:42:00,34.3,33.3,30.31,NE,46,2.6,4.0,96,0.01,,OVC,0.33,0.0,WeatherDisplay:10.37,2013-02-22 23:42:00,
2013-02-22 18:45:00,34.3,33.3,30.31,NE,46,3.0,7.0,96,0.00,,OVC,0.33,0.0,WeatherDisplay:10.37,2013-02-22 23:45:00,
2013-02-22 18:47:00,34.3,33.3,30.31,NE,46,3.0,4.0,96,0.00,,OVC,0.33,0.0,WeatherDisplay:10.37,2013-02-22 23:47:00,
2013-02-22 18:51:00,34.3,33.3,30.31,NE,46,4.3,5.8,96,0.00,,OVC,0.33,0.0,WeatherDisplay:10.37,2013-02-22 23:51:00,
2013-02-22 18:53:00,34.3,33.3,30.31,NE,46,4.1,4.6,96,0.00,,OVC,0.33,0.0,WeatherDisplay:10.37,2013-02-22 23:53:00,
2013-02-22 18:54:00,34.3,33.3,30.31,NE,46,2.9,4.6,96,0.00,,OVC,0.33,0.0,WeatherDisplay:10.37,2013-02-22 23:54:00,
2013-02-22 18:58:00,34.3,33.3,30.31,NE,46,3.6,4.6,96,0.00,,OVC,0.33,0.0,WeatherDisplay:10.37,2013-02-22 23:58:00,
2013-02-22 19:00:00,34.3,33.3,30.31,NE,46,2.0,6.0,96,0.00,,OVC,0.33,0.0,WeatherDisplay:10.37,2013-02-23 00:00:00,
2013-02-22 19:03:00,34.3,33.3,30.31,NE,46,3.7,4.6,96,0.00,,OVC,0.33,0.0,WeatherDisplay:10.37,2013-02-23 00:03:00,
2013-02-22 19:07:00,34.3,33.3,30.32,NE,46,2.5,4.0,96,0.00,,OVC,0.33,0.0,WeatherDisplay:10.37,2013-02-23 00:07:00,
2013-02-22 19:08:00,34.3,33.3,30.32,NE,46,2.5,3.5,96,0.00,,OVC,0.33,0.0,WeatherDisplay:10.37,2013-02-23 00:08:00,
2013-02-22 19:11:00,34.3,33.3,30.32,NE,46,4.1,5.8,96,0.00,,OVC,0.33,0.0,WeatherDisplay:10.37,2013-02-23 00:11:00,
2013-02-22 19:13:00,34.3,33.3,30.32,NE,42,4.1,4.6,96,0.00,,OVC,0.33,0.0,WeatherDisplay:10.37,2013-02-23 00:13:00,
2013-02-22 19:18:00,34.3,33.3,30.33,NE,42,1.8,3.5,96,0.00,,OVC,0.33,0.0,WeatherDisplay:10.37,2013-02-23 00:18:00,
2013-02-22 19:20:00,34.3,33.3,30.33,NE,42,2.6,4.0,96,0.00,,OVC,0.33,0.0,WeatherDisplay:10.37,2013-02-23 00:20:00,
2013-02-22 19:22:00,34.3,33.3,30.33,NE,42,2.3,3.5,96,0.00,,OVC,0.33,0.0,WeatherDisplay:10.37,2013-02-23 00:22:00,
2013-02-22 19:25:00,34.3,33.3,30.33,NE,42,3.4,4.0,96,0.00,,OVC,0.33,0.0,WeatherDisplay:10.37,2013-02-23 00:25:00,
2013-02-22 19:26:00,34.3,33.3,30.33,NE,42,2.9,4.0,96,0.00,,OVC,0.33,0.0,WeatherDisplay:10.37,2013-02-23 00:26:00,
2013-02-22 19:27:00,34.3,33.3,30.33,NE,42,4.4,5.0,96,0.00,,OVC,0.33,0.0,WeatherDisplay:10.37,2013-02-23 00:27:00,
2013-02-22 19:30:00,34.3,33.0,30.33,NE,42,4.1,5.0,95,0.00,,OVC,0.33,0.0,WeatherDisplay:10.37,2013-02-23 00:30:00,
2013-02-22 19:31:00,34.3,33.3,30.33,NE,42,4.1,5.0,96,0.00,,OVC,0.33,0.0,WeatherDisplay:10.37,2013-02-23 00:31:00,
2013-02-22 19:32:00,34.3,33.3,30.33,NE,42,4.0,4.6,96,0.00,,OVC,0.33,0.0,WeatherDisplay:10.37,2013-02-23 00:32:00,
2013-02-22 19:35:00,34.1,33.1,30.32,NE,50,4.6,9.2,96,0.00,,OVC,0.33,0.0,WeatherDisplay:10.37,2013-02-23 00:35:00,
2013-02-22 19:37:00,34.1,33.1,30.32,NE,51,5.4,6.9,96,0.00,,OVC,0.33,0.0,WeatherDisplay:10.37,2013-02-23 00:37:00,
2013-02-22 19:39:00,34.1,33.1,30.32,NE,51,4.9,5.8,96,0.00,,OVC,0.33,0.0,WeatherDisplay:10.37,2013-02-23 00:39:00,
2013-02-22 19:40:00,34.1,33.1,30.32,NE,51,4.6,5.8,96,0.00,,OVC,0.33,0.0,WeatherDisplay:10.37,2013-02-23 00:40:00,
2013-02-22 19:42:00,34.1,33.1,30.32,NE,51,4.6,6.9,96,0.00,,OVC,0.33,0.0,WeatherDisplay:10.37,2013-02-23 00:42:00,
2013-02-22 19:43:00,34.1,33.1,30.32,NE,51,4.0,6.9,96,0.00,,OVC,0.33,0.0,WeatherDisplay:10.37,2013-02-23 00:43:00,
2013-02-22 19:44:00,34.1,33.1,30.32,NE,51,3.1,5.8,96,0.00,,OVC,0.33,0.0,WeatherDisplay:10.37,2013-02-23 00:44:00,
2013-02-22 19:45:00,34.1,33.1,30.32,NE,51,3.0,3.5,96,0.00,,OVC,0.33,0.0,WeatherDisplay:10.37,2013-02-23 00:45:00,
2013-02-22 19:48:00,34.1,33.1,30.31,NE,51,5.4,6.9,96,0.00,,OVC,0.33,0.0,WeatherDisplay:10.37,2013-02-23 00:48:00,
2013-02-22 19:49:00,34.1,33.1,30.31,NE,51,4.9,6.0,96,0.00,,OVC,0.33,0.0,WeatherDisplay:10.37,2013-02-23 00:49:00,
2013-02-22 19:50:00,34.1,33.1,30.31,NE,51,5.2,6.0,96,0.00,,OVC,0.33,0.0,WeatherDisplay:10.37,2013-02-23 00:50:00,
2013-02-22 19:52:00,34.1,33.1,30.31,NE,51,4.1,5.8,96,0.00,,OVC,0.33,0.0,WeatherDisplay:10.37,2013-02-23 00:52:00,
2013-02-22 19:54:00,34.1,33.1,30.31,NE,51,3.2,3.5,96,0.00,,OVC,0.33,0.0,WeatherDisplay:10.37,2013-02-23 00:54:00,
2013-02-22 19:55:00,34.1,33.1,30.31,NE,51,3.1,4.0,96,0.00,,OVC,0.33,0.0,WeatherDisplay:10.37,2013-02-23 00:55:00,
2013-02-22 19:56:00,34.1,33.1,30.31,NE,51,4.3,5.0,96,0.00,,OVC,0.33,0.0,WeatherDisplay:10.37,2013-02-23 00:56:00,
2013-02-22 19:58:00,34.1,33.1,30.31,NE,51,3.2,3.5,96,0.00,,OVC,0.33,0.0,WeatherDisplay:10.37,2013-02-23 00:58:00,
2013-02-22 19:59:00,34.1,33.1,30.31,NE,51,3.1,3.5,96,0.00,,OVC,0.33,0.0,WeatherDisplay:10.37,2013-02-23 00:59:00,
2013-02-22 20:02:00,34.1,33.1,30.31,NE,51,3.7,4.0,96,0.00,,OVC,0.33,0.0,WeatherDisplay:10.37,2013-02-23 01:02:00,
2013-02-22 20:03:00,34.1,33.1,30.31,NE,51,3.5,4.6,96,0.00,,OVC,0.33,0.0,WeatherDisplay:10.37,2013-02-23 01:03:00,
2013-02-22 20:04:00,34.1,33.1,30.31,NE,51,3.6,4.6,96,0.00,,OVC,0.33,0.0,WeatherDisplay:10.37,2013-02-23 01:04:00,
2013-02-22 20:08:00,34.1,32.6,30.31,NE,51,2.9,5.0,94,0.00,,OVC,0.33,0.0,WeatherDisplay:10.37,2013-02-23 01:08:00,
2013-02-22 20:09:00,34.1,32.6,30.31,NE,51,3.4,4.6,94,0.00,,OVC,0.33,0.0,WeatherDisplay:10.37,2013-02-23 01:09:00,
2013-02-22 20:11:00,34.1,33.1,30.31,NE,51,4.5,4.6,96,0.00,,OVC,0.33,0.0,WeatherDisplay:10.37,2013-02-23 01:11:00,
2013-02-22 20:14:00,34.1,33.1,30.31,NE,51,3.3,3.5,96,0.00,,OVC,0.33,0.0,WeatherDisplay:10.37,2013-02-23 01:14:00,
2013-02-22 20:16:00,34.1,33.1,30.31,NE,51,3.4,4.6,96,0.00,,OVC,0.33,0.0,WeatherDisplay:10.37,2013-02-23 01:16:00,
2013-02-22 20:19:00,34.1,33.1,30.30,NE,51,2.9,4.0,96,0.00,,OVC,0.33,0.0,WeatherDisplay:10.37,2013-02-23 01:19:00,
2013-02-22 20:21:00,34.1,33.1,30.30,NE,51,2.9,3.5,96,0.00,,OVC,0.33,0.0,WeatherDisplay:10.37,2013-02-23 01:21:00,
2013-02-22 20:22:00,34.1,33.1,30.30,NE,51,2.7,3.5,96,0.00,,OVC,0.33,0.0,WeatherDisplay:10.37,2013-02-23 01:22:00,
2013-02-22 20:26:00,34.1,33.1,30.30,NE,51,4.1,5.0,96,0.00,,OVC,0.33,0.0,WeatherDisplay:10.37,2013-02-23 01:26:00,
2013-02-22 20:27:00,34.1,33.1,30.30,NE,51,5.5,6.0,96,0.00,,OVC,0.33,0.0,WeatherDisplay:10.37,2013-02-23 01:27:00,
2013-02-22 20:31:00,34.0,33.0,30.30,NE,51,4.2,6.0,96,0.00,,OVC,0.33,0.0,WeatherDisplay:10.37,2013-02-23 01:31:00,
2013-02-22 20:32:00,34.1,33.1,30.30,NE,51,4.6,6.9,96,0.00,,OVC,0.33,0.0,WeatherDisplay:10.37,2013-02-23 01:32:00,
2013-02-22 20:34:00,34.1,33.1,30.30,NE,51,3.9,6.0,96,0.00,,OVC,0.33,0.0,WeatherDisplay:10.37,2013-02-23 01:34:00,
2013-02-22 20:36:00,34.0,33.0,30.30,NE,51,4.7,5.8,96,0.00,,OVC,0.33,0.0,WeatherDisplay:10.37,2013-02-23 01:36:00,
2013-02-22 20:37:00,34.0,33.0,30.30,NE,51,3.8,5.8,96,0.00,,OVC,0.33,0.0,WeatherDisplay:10.37,2013-02-23 01:37:00,
2013-02-22 20:38:00,34.0,33.0,30.30,NE,51,3.6,5.0,96,0.00,,OVC,0.33,0.0,WeatherDisplay:10.37,2013-02-23 01:38:00,
2013-02-22 20:39:00,34.0,33.0,30.30,NE,51,4.3,5.8,96,0.00,,OVC,0.33,0.0,WeatherDisplay:10.37,2013-02-23 01:39:00,
2013-02-22 20:41:00,34.1,33.1,30.30,NE,51,3.9,4.0,96,0.00,,OVC,0.33,0.0,WeatherDisplay:10.37,2013-02-23 01:41:00,
2013-02-22 20:44:00,34.1,33.1,30.30,NE,51,2.8,4.0,96,0.00,,OVC,0.33,0.0,WeatherDisplay:10.37,2013-02-23 01:44:00,
2013-02-22 20:45:00,34.1,33.1,30.30,NE,51,3.0,7.0,96,0.00,,OVC,0.33,0.0,WeatherDisplay:10.37,2013-02-23 01:45:00,
2013-02-22 20:47:00,34.1,33.1,30.30,NE,51,3.1,4.0,96,0.00,,OVC,0.33,0.0,WeatherDisplay:10.37,2013-02-23 01:47:00,
2013-02-22 20:49:00,34.1,33.1,30.30,NE,51,4.2,5.0,96,0.00,,OVC,0.33,0.0,WeatherDisplay:10.37,2013-02-23 01:49:00,
2013-02-22 20:50:00,34.1,33.1,30.30,NE,51,2.5,4.6,96,0.00,,OVC,0.33,0.0,WeatherDisplay:10.37,2013-02-23 01:50:00,
2013-02-22 20:51:00,34.1,33.1,30.30,NE,51,2.1,4.6,96,0.00,,OVC,0.33,0.0,WeatherDisplay:10.37,2013-02-23 01:51:00,
2013-02-22 20:53:00,34.1,33.1,30.30,NE,51,2.3,3.5,96,0.00,,OVC,0.33,0.0,WeatherDisplay:10.37,2013-02-23 01:53:00,
2013-02-22 20:54:00,34.1,33.1,30.30,NE,51,3.8,6.0,96,0.00,,OVC,0.33,0.0,WeatherDisplay:10.37,2013-02-23 01:54:00,
2013-02-22 20:56:00,34.1,33.1,30.30,NE,51,3.6,5.0,96,0.00,,OVC,0.33,0.0,WeatherDisplay:10.37,2013-02-23 01:56:00,
2013-02-22 20:57:00,34.1,33.1,30.30,NE,51,3.9,5.0,96,0.00,,OVC,0.33,0.0,WeatherDisplay:10.37,2013-02-23 01:57:00,
2013-02-22 20:58:00,34.1,33.1,30.30,NE,51,4.2,4.6,96,0.00,,OVC,0.33,0.0,WeatherDisplay:10.37,2013-02-23 01:58:00,
2013-02-22 21:00:00,34.1,33.1,30.30,NE,51,4.0,4.0,96,0.00,,OVC,0.33,0.0,WeatherDisplay:10.37,2013-02-23 02:00:00,
2013-02-22 21:01:00,34.1,33.1,30.30,NE,51,4.4,6.0,96,0.00,,OVC,0.33,0.0,WeatherDisplay:10.37,2013-02-23 02:01:00,
2013-02-22 21:02:00,34.1,33.1,30.30,NE,51,4.6,5.8,96,0.00,,OVC,0.33,0.0,WeatherDisplay:10.37,2013-02-23 02:02:00,
2013-02-22 21:04:00,34.1,33.1,30.30,NE,51,3.3,4.6,96,0.00,,OVC,0.33,0.0,WeatherDisplay:10.37,2013-02-23 02:04:00,
2013-02-22 21:05:00,34.1,33.1,30.30,NE,51,2.2,3.5,96,0.00,,OVC,0.33,0.0,WeatherDisplay:10.37,2013-02-23 02:05:00,
2013-02-22 21:07:00,34.1,33.1,30.30,NE,51,3.1,4.0,96,0.00,,OVC,0.33,0.0,WeatherDisplay:10.37,2013-02-23 02:07:00,
2013-02-22 21:09:00,34.1,33.1,30.30,NE,51,2.2,4.0,96,0.00,,OVC,0.33,0.0,WeatherDisplay:10.37,2013-02-23 02:09:00,
2013-02-22 21:10:00,34.1,33.1,30.30,NE,51,2.6,5.0,96,0.00,,OVC,0.33,0.0,WeatherDisplay:10.37,2013-02-23 02:10:00,
2013-02-22 21:12:00,34.1,33.1,30.30,NE,51,3.4,4.6,96,0.00,,OVC,0.33,0.0,WeatherDisplay:10.37,2013-02-23 02:12:00,
2013-02-22 21:15:00,34.1,33.1,30.30,NE,51,3.8,5.0,96,0.00,,OVC,0.33,0.0,WeatherDisplay:10.37,2013-02-23 02:15:00,
2013-02-22 21:16:00,34.0,33.0,30.30,NE,51,4.3,5.8,96,0.00,,OVC,0.33,0.0,WeatherDisplay:10.37,2013-02-23 02:16:00,
2013-02-22 21:18:00,34.0,33.0,30.30,NE,51,3.5,4.6,96,0.00,,OVC,0.33,0.0,WeatherDisplay:10.37,2013-02-23 02:18:00,
2013-02-22 21:20:00,34.0,33.7,30.31,NE,51,3.8,4.6,99,0.00,,OVC,0.33,0.0,WeatherDisplay:10.37,2013-02-23 02:20:00,
2013-02-22 21:22:00,34.0,33.0,30.31,NE,51,4.0,5.0,96,0.00,,OVC,0.33,0.0,WeatherDisplay:10.37,2013-02-23 02:22:00,
2013-02-22 21:23:00,34.0,33.0,30.31,NE,46,4.4,6.9,96,0.00,,OVC,0.33,0.0,WeatherDisplay:10.37,2013-02-23 02:23:00,
2013-02-22 21:25:00,34.0,33.0,30.31,NE,46,3.2,5.8,96,0.00,,OVC,0.33,0.0,WeatherDisplay:10.37,2013-02-23 02:25:00,
2013-02-22 21:29:00,34.0,33.0,30.31,NE,46,3.4,5.8,96,0.00,,OVC,0.33,0.0,WeatherDisplay:10.37,2013-02-23 02:29:00,
2013-02-22 21:30:00,34.0,33.0,30.31,NE,46,5.0,5.8,96,0.00,,OVC,0.33,0.0,WeatherDisplay:10.37,2013-02-23 02:30:00,
2013-02-22 21:31:00,34.0,33.0,30.31,NE,46,4.9,5.8,96,0.00,,OVC,0.33,0.0,WeatherDisplay:10.37,2013-02-23 02:31:00,
2013-02-22 21:36:00,34.0,33.2,30.32,NE,46,2.8,3.5,97,0.01,RA,OVC,0.34,0.0,WeatherDisplay:10.37,2013-02-23 02:36:00,
2013-02-22 21:37:00,34.0,33.2,30.32,NE,46,2.5,3.5,97,0.01,RA,OVC,0.34,0.0,WeatherDisplay:10.37,2013-02-23 02:37:00,
2013-02-22 21:39:00,34.0,33.0,30.32,NE,46,3.5,3.5,96,0.01,RA,OVC,0.34,0.0,WeatherDisplay:10.37,2013-02-23 02:39:00,
2013-02-22 21:41:00,34.0,33.2,30.32,NE,46,4.2,4.6,97,0.01,RA,OVC,0.34,0.0,WeatherDisplay:10.37,2013-02-23 02:41:00,
2013-02-22 21:44:00,34.0,33.2,30.32,NE,46,4.2,4.2,97,0.01,RA,OVC,0.34,0.0,WeatherDisplay:10.37,2013-02-23 02:44:00,
2013-02-22 21:47:00,34.0,33.2,30.32,NE,46,3.9,4.0,97,0.01,,OVC,0.34,0.0,WeatherDisplay:10.37,2013-02-23 02:47:00,
2013-02-22 21:49:00,34.0,33.2,30.31,NE,46,2.8,4.0,97,0.01,,OVC,0.34,0.0,WeatherDisplay:10.37,2013-02-23 02:49:00,
2013-02-22 21:51:00,34.0,33.2,30.31,NE,46,2.6,3.5,97,0.01,,OVC,0.34,0.0,WeatherDisplay:10.37,2013-02-23 02:51:00,
2013-02-22 21:52:00,34.0,33.2,30.31,NE,46,2.7,3.5,97,0.01,,OVC,0.34,0.0,WeatherDisplay:10.37,2013-02-23 02:52:00,
2013-02-22 21:54:00,34.0,33.2,30.31,NE,46,2.3,3.5,97,0.01,,OVC,0.34,0.0,WeatherDisplay:10.37,2013-02-23 02:54:00,
2013-02-22 21:57:00,34.0,33.2,30.31,NE,46,2.8,4.0,97,0.01,,OVC,0.34,0.0,WeatherDisplay:10.37,2013-02-23 02:57:00,
2013-02-22 21:58:00,34.0,33.2,30.31,NE,46,3.2,3.5,97,0.01,,OVC,0.34,0.0,WeatherDisplay:10.37,2013-02-23 02:58:00,
2013-02-22 22:02:00,34.0,33.2,30.31,NE,46,0.8,3.5,97,0.01,,OVC,0.34,0.0,WeatherDisplay:10.37,2013-02-23 03:02:00,
2013-02-22 22:04:00,34.0,33.2,30.31,NE,46,2.1,3.5,97,0.01,,OVC,0.34,0.0,WeatherDisplay:10.37,2013-02-23 03:04:00,
2013-02-22 22:07:00,34.0,33.2,30.31,NE,46,3.4,4.6,97,0.01,,OVC,0.34,0.0,WeatherDisplay:10.37,2013-02-23 03:07:00,
2013-02-22 22:09:00,34.0,33.2,30.31,NE,46,5.2,6.9,97,0.01,,OVC,0.34,0.0,WeatherDisplay:10.37,2013-02-23 03:09:00,
2013-02-22 22:10:00,34.0,33.2,30.31,NE,46,4.4,6.9,97,0.01,,OVC,0.34,0.0,WeatherDisplay:10.37,2013-02-23 03:10:00,
2013-02-22 22:11:00,34.0,33.2,30.31,NE,46,4.3,4.6,97,0.01,,OVC,0.34,0.0,WeatherDisplay:10.37,2013-02-23 03:11:00,
2013-02-22 22:14:00,34.1,33.3,30.31,NE,46,3.7,5.0,97,0.01,,OVC,0.34,0.0,WeatherDisplay:10.37,2013-02-23 03:14:00,
2013-02-22 22:15:00,34.1,33.3,30.31,NE,46,2.6,4.6,97,0.01,,OVC,0.34,0.0,WeatherDisplay:10.37,2013-02-23 03:15:00,
2013-02-22 22:19:00,34.1,33.3,30.30,NE,46,5.4,5.4,97,0.01,,OVC,0.34,0.0,WeatherDisplay:10.37,2013-02-23 03:19:00,
2013-02-22 22:20:00,34.1,33.3,30.30,NE,46,3.2,6.9,97,0.01,,OVC,0.34,0.0,WeatherDisplay:10.37,2013-02-23 03:20:00,
2013-02-22 22:21:00,34.1,33.3,30.30,NE,46,2.3,3.5,97,0.01,,OVC,0.34,0.0,WeatherDisplay:10.37,2013-02-23 03:21:00,
2013-02-22 22:23:00,34.1,33.3,30.30,NE,46,2.6,3.5,97,0.01,,OVC,0.34,0.0,WeatherDisplay:10.37,2013-02-23 03:23:00,
2013-02-22 22:25:00,34.1,33.3,30.30,NE,46,0.0,3.5,97,0.01,,OVC,0.34,0.0,WeatherDisplay:10.37,2013-02-23 03:25:00,
2013-02-22 22:27:00,34.1,33.3,30.30,NE,46,0.5,3.0,97,0.01,,OVC,0.34,0.0,WeatherDisplay:10.37,2013-02-23 03:27:00,
2013-02-22 22:28:00,34.1,33.3,30.30,NE,46,3.1,3.5,97,0.01,,OVC,0.34,0.0,WeatherDisplay:10.37,2013-02-23 03:28:00,
2013-02-22 22:30:00,34.1,33.3,30.30,NE,46,2.6,3.5,97,0.01,,OVC,0.34,0.0,WeatherDisplay:10.37,2013-02-23 03:30:00,
2013-02-22 22:32:00,34.1,33.3,30.30,NE,46,2.7,3.5,97,0.01,,OVC,0.34,0.0,WeatherDisplay:10.37,2013-02-23 03:32:00,
2013-02-22 22:33:00,34.1,33.3,30.30,NE,46,4.0,5.8,97,0.01,,OVC,0.34,0.0,WeatherDisplay:10.37,2013-02-23 03:33:00,
2013-02-22 22:35:00,34.1,33.3,30.30,NE,46,3.3,3.5,97,0.01,,OVC,0.34,0.0,WeatherDisplay:10.37,2013-02-23 03:35:00,
2013-02-22 22:37:00,34.1,33.3,30.30,NE,46,3.9,4.6,97,0.00,,OVC,0.34,0.0,WeatherDisplay:10.37,2013-02-23 03:37:00,
2013-02-22 22:41:00,34.1,33.3,30.30,NE,46,1.7,3.5,97,0.00,,OVC,0.34,0.0,WeatherDisplay:10.37,2013-02-23 03:41:00,
2013-02-22 22:42:00,34.1,33.3,30.30,NE,46,2.8,4.0,97,0.00,,OVC,0.34,0.0,WeatherDisplay:10.37,2013-02-23 03:42:00,
2013-02-22 22:43:00,34.1,33.3,30.30,NE,46,3.2,3.5,97,0.00,,OVC,0.34,0.0,WeatherDisplay:10.37,2013-02-23 03:43:00,
2013-02-22 22:44:00,34.1,33.3,30.30,NE,46,2.6,3.5,97,0.00,,OVC,0.34,0.0,WeatherDisplay:10.37,2013-02-23 03:44:00,
2013-02-22 22:47:00,34.1,33.3,30.30,NE,46,2.8,3.5,97,0.00,,OVC,0.34,0.0,WeatherDisplay:10.37,2013-02-23 03:47:00,
2013-02-22 22:48:00,34.1,33.3,30.30,NE,46,2.6,3.5,97,0.00,,OVC,0.34,0.0,WeatherDisplay:10.37,2013-02-23 03:48:00,
2013-02-22 22:49:00,34.1,33.3,30.30,NE,46,2.4,4.0,97,0.00,,OVC,0.34,0.0,WeatherDisplay:10.37,2013-02-23 03:49:00,
2013-02-22 22:50:00,34.1,33.3,30.30,NE,46,3.2,4.0,97,0.00,,OVC,0.34,0.0,WeatherDisplay:10.37,2013-02-23 03:50:00,
2013-02-22 22:53:00,34.1,33.3,30.30,NE,46,2.6,3.5,97,0.00,,OVC,0.34,0.0,WeatherDisplay:10.37,2013-02-23 03:53:00,
2013-02-22 22:56:00,34.1,33.3,30.30,NE,46,2.9,4.0,97,0.00,,OVC,0.34,0.0,WeatherDisplay:10.37,2013-02-23 03:56:00,
2013-02-22 22:57:00,34.1,33.3,30.30,NE,46,2.6,3.5,97,0.00,,OVC,0.34,0.0,WeatherDisplay:10.37,2013-02-23 03:57:00,
2013-02-22 22:59:00,34.3,33.5,30.30,NE,46,2.9,4.0,97,0.00,,OVC,0.34,0.0,WeatherDisplay:10.37,2013-02-23 03:59:00,
2013-02-22 23:00:00,34.3,33.5,30.30,NE,46,3.6,4.0,97,0.00,,OVC,0.34,0.0,WeatherDisplay:10.37,2013-02-23 04:00:00,
2013-02-22 23:01:00,34.3,33.5,30.30,NE,46,3.7,5.8,97,0.00,,OVC,0.34,0.0,WeatherDisplay:10.37,2013-02-23 04:01:00,
2013-02-22 23:04:00,34.1,33.3,30.28,NE,46,4.3,5.0,97,0.00,,OVC,0.34,0.0,WeatherDisplay:10.37,2013-02-23 04:04:00,
2013-02-22 23:05:00,34.1,33.3,30.28,NE,46,4.7,6.0,97,0.00,,OVC,0.34,0.0,WeatherDisplay:10.37,2013-02-23 04:05:00,
2013-02-22 23:06:00,34.1,33.3,30.28,NE,46,5.1,5.8,97,0.00,,OVC,0.34,0.0,WeatherDisplay:10.37,2013-02-23 04:06:00,
2013-02-22 23:08:00,34.1,33.3,30.28,NE,46,5.4,6.9,97,0.00,,OVC,0.34,0.0,WeatherDisplay:10.37,2013-02-23 04:08:00,
2013-02-22 23:10:00,34.1,33.3,30.28,NE,47,4.9,6.9,97,0.00,,OVC,0.34,0.0,WeatherDisplay:10.37,2013-02-23 04:10:00,
2013-02-22 23:11:00,34.1,33.3,30.28,NE,48,5.1,5.8,97,0.00,,OVC,0.34,0.0,WeatherDisplay:10.37,2013-02-23 04:11:00,
2013-02-22 23:14:00,34.1,33.3,30.28,NE,49,4.8,7.0,97,0.00,,OVC,0.34,0.0,WeatherDisplay:10.37,2013-02-23 04:14:00,
2013-02-22 23:16:00,34.1,33.3,30.28,NE,49,5.4,6.9,97,0.00,,OVC,0.34,0.0,WeatherDisplay:10.37,2013-02-23 04:16:00,
2013-02-22 23:19:00,34.1,33.3,30.26,NE,49,3.8,5.0,97,0.00,,OVC,0.34,0.0,WeatherDisplay:10.37,2013-02-23 04:19:00,
2013-02-22 23:21:00,34.1,33.3,30.26,NE,49,3.4,3.5,97,0.00,,OVC,0.34,0.0,WeatherDisplay:10.37,2013-02-23 04:21:00,
2013-02-22 23:24:00,34.1,33.3,30.26,NE,49,3.2,4.0,97,0.00,,OVC,0.34,0.0,WeatherDisplay:10.37,2013-02-23 04:24:00,
2013-02-22 23:25:00,34.1,33.3,30.26,NE,49,2.9,4.0,97,0.00,,OVC,0.34,0.0,WeatherDisplay:10.37,2013-02-23 04:25:00,
2013-02-22 23:27:00,34.1,33.3,30.26,NE,49,4.4,5.0,97,0.00,,OVC,0.34,0.0,WeatherDisplay:10.37,2013-02-23 04:27:00,
2013-02-22 23:28:00,34.1,33.3,30.26,NE,49,4.2,4.6,97,0.00,,OVC,0.34,0.0,WeatherDisplay:10.37,2013-02-23 04:28:00,
2013-02-22 23:32:00,34.1,33.3,30.26,NE,49,2.7,3.5,97,0.00,,OVC,0.34,0.0,WeatherDisplay:10.37,2013-02-23 04:32:00,
2013-02-22 23:33:00,34.1,33.3,30.26,NE,49,3.1,5.0,97,0.00,,OVC,0.34,0.0,WeatherDisplay:10.37,2013-02-23 04:33:00,
2013-02-22 23:36:00,34.1,33.3,30.24,NE,49,2.8,3.5,97,0.00,,OVC,0.34,0.0,WeatherDisplay:10.37,2013-02-23 04:36:00,
2013-02-22 23:38:00,34.1,33.3,30.24,NE,49,1.2,3.5,97,0.00,,OVC,0.34,0.0,WeatherDisplay:10.37,2013-02-23 04:38:00,
2013-02-22 23:39:00,34.1,33.3,30.24,NE,49,1.5,3.5,97,0.00,,OVC,0.34,0.0,WeatherDisplay:10.37,2013-02-23 04:39:00,
2013-02-22 23:41:00,34.1,33.3,30.24,NE,49,0.3,3.5,97,0.00,,OVC,0.34,0.0,WeatherDisplay:10.37,2013-02-23 04:41:00,
2013-02-22 23:43:00,34.1,33.3,30.24,NE,49,0.0,0.0,97,0.00,,OVC,0.34,0.0,WeatherDisplay:10.37,2013-02-23 04:43:00,
2013-02-22 23:44:00,34.1,33.3,30.24,NE,49,0.7,3.5,97,0.00,,OVC,0.34,0.0,WeatherDisplay:10.37,2013-02-23 04:44:00,
2013-02-22 23:46:00,34.3,33.5,30.24,NE,49,3.2,3.5,97,0.00,,OVC,0.34,0.0,WeatherDisplay:10.37,2013-02-23 04:46:00,
2013-02-22 23:48:00,34.3,33.5,30.24,NE,49,3.0,4.0,97,0.00,,OVC,0.34,0.0,WeatherDisplay:10.37,2013-02-23 04:48:00,
2013-02-22 23:49:00,34.3,33.5,30.25,NE,49,2.9,3.5,97,0.00,,OVC,0.34,0.0,WeatherDisplay:10.37,2013-02-23 04:49:00,
2013-02-22 23:50:00,34.1,33.3,30.25,NE,49,1.9,3.5,97,0.00,,OVC,0.34,0.0,WeatherDisplay:10.37,2013-02-23 04:50:00,
2013-02-22 23:53:00,34.3,33.5,30.25,NE,49,2.2,3.5,97,0.00,,OVC,0.34,0.0,WeatherDisplay:10.37,2013-02-23 04:53:00,
2013-02-22 23:54:00,34.3,33.5,30.25,NE,49,2.5,3.5,97,0.00,,OVC,0.34,0.0,WeatherDisplay:10.37,2013-02-23 04:54:00,
2013-02-22 23:56:00,34.3,33.5,30.25,NE,49,3.7,4.6,97,0.00,,OVC,0.34,0.0,WeatherDisplay:10.37,2013-02-23 04:56:00,
2013-02-22 23:58:00,34.3,33.5,30.25,NE,49,2.6,3.5,97,0.00,,OVC,0.34,0.0,WeatherDisplay:10.37,2013-02-23 04:58:00,